<?xml version="1.0" encoding="UTF-8" standalone="no" ?>
<gpx xmlns="http://www.topografix.com/GPX/1/1" xmlns:xsi="http://www.w3.org/2001/XMLSchema-instance" xsi:schemaLocation="http://www.topografix.com/GPX/1/1 http://www.topografix.com/GPX/1/1/gpx.xsd" version="1.1" creator="VisuGPX - https://www.visugpx.com">
  <metadata>
    <name>Aveyron</name>
    <desc><![CDATA[9 jours de vélo dans l'Aveyron (et un peu du Lot)]]></desc>
  </metadata>
  <trk>
    <name><![CDATA[j6]]></name>
    <desc><![CDATA[comment ...]]></desc>
    <extensions>
      <line xmlns="http://www.topografix.com/GPX/gpx_style/0/2">
        <color>00ecec</color>
        <width>4</width>
      </line>
    </extensions>
    <trkseg>
      <trkpt lat="44.46328" lon="1.77903">
        <ele>190</ele>
        <time>2021-09-01T07:45:42Z</time>
      </trkpt>
      <trkpt lat="44.46326" lon="1.77909">
        <ele>182</ele>
        <time>2021-09-01T07:45:52Z</time>
      </trkpt>
      <trkpt lat="44.46298" lon="1.7799">
        <ele>188</ele>
        <time>2021-09-01T07:48:08Z</time>
      </trkpt>
      <trkpt lat="44.46233" lon="1.78139">
        <ele>303</ele>
        <time>2021-09-01T07:48:09Z</time>
      </trkpt>
      <trkpt lat="44.46207" lon="1.78109">
        <ele>196</ele>
        <time>2021-09-01T07:49:24Z</time>
      </trkpt>
      <trkpt lat="44.46205" lon="1.78104">
        <ele>187</ele>
        <time>2021-09-01T07:49:50Z</time>
      </trkpt>
      <trkpt lat="44.46198" lon="1.78103">
        <ele>186</ele>
        <time>2021-09-01T07:49:53Z</time>
      </trkpt>
      <trkpt lat="44.46189" lon="1.78109">
        <ele>172</ele>
        <time>2021-09-01T07:50:02Z</time>
      </trkpt>
      <trkpt lat="44.46185" lon="1.78114">
        <ele>169</ele>
        <time>2021-09-01T07:50:04Z</time>
      </trkpt>
      <trkpt lat="44.46179" lon="1.7812">
        <ele>168</ele>
        <time>2021-09-01T07:50:07Z</time>
      </trkpt>
      <trkpt lat="44.46134" lon="1.78177">
        <ele>141</ele>
        <time>2021-09-01T07:50:37Z</time>
      </trkpt>
      <trkpt lat="44.46129" lon="1.78209">
        <ele>145</ele>
        <time>2021-09-01T07:50:48Z</time>
      </trkpt>
      <trkpt lat="44.46125" lon="1.78221">
        <ele>147</ele>
        <time>2021-09-01T07:50:52Z</time>
      </trkpt>
      <trkpt lat="44.46096" lon="1.78281">
        <ele>143</ele>
        <time>2021-09-01T07:51:14Z</time>
      </trkpt>
      <trkpt lat="44.46095" lon="1.78305">
        <ele>144</ele>
        <time>2021-09-01T07:51:20Z</time>
      </trkpt>
      <trkpt lat="44.46074" lon="1.78349">
        <ele>145</ele>
        <time>2021-09-01T07:51:32Z</time>
      </trkpt>
      <trkpt lat="44.4604" lon="1.78447">
        <ele>142</ele>
        <time>2021-09-01T07:51:54Z</time>
      </trkpt>
      <trkpt lat="44.46034" lon="1.78468">
        <ele>143</ele>
        <time>2021-09-01T07:51:58Z</time>
      </trkpt>
      <trkpt lat="44.46015" lon="1.78624">
        <ele>146</ele>
        <time>2021-09-01T07:52:27Z</time>
      </trkpt>
      <trkpt lat="44.46011" lon="1.78684">
        <ele>146</ele>
        <time>2021-09-01T07:52:37Z</time>
      </trkpt>
      <trkpt lat="44.46023" lon="1.78755">
        <ele>151</ele>
        <time>2021-09-01T07:52:49Z</time>
      </trkpt>
      <trkpt lat="44.4603" lon="1.78798">
        <ele>150</ele>
        <time>2021-09-01T07:52:57Z</time>
      </trkpt>
      <trkpt lat="44.46033" lon="1.7881">
        <ele>150</ele>
        <time>2021-09-01T07:52:59Z</time>
      </trkpt>
      <trkpt lat="44.46041" lon="1.78829">
        <ele>150</ele>
        <time>2021-09-01T07:53:03Z</time>
      </trkpt>
      <trkpt lat="44.46045" lon="1.7884">
        <ele>150</ele>
        <time>2021-09-01T07:53:05Z</time>
      </trkpt>
      <trkpt lat="44.46054" lon="1.78874">
        <ele>152</ele>
        <time>2021-09-01T07:53:11Z</time>
      </trkpt>
      <trkpt lat="44.46089" lon="1.78976">
        <ele>154</ele>
        <time>2021-09-01T07:53:30Z</time>
      </trkpt>
      <trkpt lat="44.4609" lon="1.78989">
        <ele>155</ele>
        <time>2021-09-01T07:53:32Z</time>
      </trkpt>
      <trkpt lat="44.46089" lon="1.78996">
        <ele>155</ele>
        <time>2021-09-01T07:53:33Z</time>
      </trkpt>
      <trkpt lat="44.46082" lon="1.79008">
        <ele>155</ele>
        <time>2021-09-01T07:53:35Z</time>
      </trkpt>
      <trkpt lat="44.46075" lon="1.79016">
        <ele>156</ele>
        <time>2021-09-01T07:53:37Z</time>
      </trkpt>
      <trkpt lat="44.46064" lon="1.7902">
        <ele>154</ele>
        <time>2021-09-01T07:53:39Z</time>
      </trkpt>
      <trkpt lat="44.45999" lon="1.79059">
        <ele>156</ele>
        <time>2021-09-01T07:53:55Z</time>
      </trkpt>
      <trkpt lat="44.45961" lon="1.79064">
        <ele>155</ele>
        <time>2021-09-01T07:54:05Z</time>
      </trkpt>
      <trkpt lat="44.45913" lon="1.79057">
        <ele>155</ele>
        <time>2021-09-01T07:54:21Z</time>
      </trkpt>
      <trkpt lat="44.45907" lon="1.79054">
        <ele>155</ele>
        <time>2021-09-01T07:54:23Z</time>
      </trkpt>
      <trkpt lat="44.45898" lon="1.79051">
        <ele>156</ele>
        <time>2021-09-01T07:54:26Z</time>
      </trkpt>
      <trkpt lat="44.45892" lon="1.79053">
        <ele>157</ele>
        <time>2021-09-01T07:54:28Z</time>
      </trkpt>
      <trkpt lat="44.45885" lon="1.7906">
        <ele>159</ele>
        <time>2021-09-01T07:54:31Z</time>
      </trkpt>
      <trkpt lat="44.45885" lon="1.79065">
        <ele>158</ele>
        <time>2021-09-01T07:55:18Z</time>
      </trkpt>
      <trkpt lat="44.45885" lon="1.79073">
        <ele>154</ele>
        <time>2021-09-01T07:55:24Z</time>
      </trkpt>
      <trkpt lat="44.45876" lon="1.79103">
        <ele>153</ele>
        <time>2021-09-01T07:55:33Z</time>
      </trkpt>
      <trkpt lat="44.45876" lon="1.79118">
        <ele>154</ele>
        <time>2021-09-01T07:55:37Z</time>
      </trkpt>
      <trkpt lat="44.45882" lon="1.79135">
        <ele>154</ele>
        <time>2021-09-01T07:55:43Z</time>
      </trkpt>
      <trkpt lat="44.45884" lon="1.79141">
        <ele>156</ele>
        <time>2021-09-01T07:55:46Z</time>
      </trkpt>
      <trkpt lat="44.45899" lon="1.7915">
        <ele>158</ele>
        <time>2021-09-01T07:55:55Z</time>
      </trkpt>
      <trkpt lat="44.45926" lon="1.79167">
        <ele>160</ele>
        <time>2021-09-01T07:56:10Z</time>
      </trkpt>
      <trkpt lat="44.45965" lon="1.7917">
        <ele>165</ele>
        <time>2021-09-01T07:56:32Z</time>
      </trkpt>
      <trkpt lat="44.45971" lon="1.79174">
        <ele>166</ele>
        <time>2021-09-01T07:56:35Z</time>
      </trkpt>
      <trkpt lat="44.45974" lon="1.79178">
        <ele>166</ele>
        <time>2021-09-01T07:56:37Z</time>
      </trkpt>
      <trkpt lat="44.45976" lon="1.79185">
        <ele>166</ele>
        <time>2021-09-01T07:56:40Z</time>
      </trkpt>
      <trkpt lat="44.45976" lon="1.79233">
        <ele>167</ele>
        <time>2021-09-01T07:56:58Z</time>
      </trkpt>
      <trkpt lat="44.45971" lon="1.79269">
        <ele>167</ele>
        <time>2021-09-01T07:57:13Z</time>
      </trkpt>
      <trkpt lat="44.45966" lon="1.79283">
        <ele>167</ele>
        <time>2021-09-01T07:57:19Z</time>
      </trkpt>
      <trkpt lat="44.4596" lon="1.79311">
        <ele>166</ele>
        <time>2021-09-01T07:57:30Z</time>
      </trkpt>
      <trkpt lat="44.45961" lon="1.79333">
        <ele>166</ele>
        <time>2021-09-01T07:57:39Z</time>
      </trkpt>
      <trkpt lat="44.45969" lon="1.79355">
        <ele>167</ele>
        <time>2021-09-01T07:57:49Z</time>
      </trkpt>
      <trkpt lat="44.45992" lon="1.79382">
        <ele>174</ele>
        <time>2021-09-01T07:58:07Z</time>
      </trkpt>
      <trkpt lat="44.46051" lon="1.79422">
        <ele>179</ele>
        <time>2021-09-01T07:58:40Z</time>
      </trkpt>
      <trkpt lat="44.46113" lon="1.79461">
        <ele>184</ele>
        <time>2021-09-01T07:59:12Z</time>
      </trkpt>
      <trkpt lat="44.46217" lon="1.79548">
        <ele>177</ele>
        <time>2021-09-01T07:59:32Z</time>
      </trkpt>
      <trkpt lat="44.46265" lon="1.79608">
        <ele>174</ele>
        <time>2021-09-01T07:59:40Z</time>
      </trkpt>
      <trkpt lat="44.46319" lon="1.79709">
        <ele>172</ele>
        <time>2021-09-01T07:59:55Z</time>
      </trkpt>
      <trkpt lat="44.46372" lon="1.79764">
        <ele>169</ele>
        <time>2021-09-01T08:00:09Z</time>
      </trkpt>
      <trkpt lat="44.46417" lon="1.79868">
        <ele>173</ele>
        <time>2021-09-01T08:00:35Z</time>
      </trkpt>
      <trkpt lat="44.46456" lon="1.79967">
        <ele>176</ele>
        <time>2021-09-01T08:01:05Z</time>
      </trkpt>
      <trkpt lat="44.46491" lon="1.80069">
        <ele>179</ele>
        <time>2021-09-01T08:01:36Z</time>
      </trkpt>
      <trkpt lat="44.46495" lon="1.80081">
        <ele>179</ele>
        <time>2021-09-01T08:01:40Z</time>
      </trkpt>
      <trkpt lat="44.46502" lon="1.80094">
        <ele>180</ele>
        <time>2021-09-01T08:01:45Z</time>
      </trkpt>
      <trkpt lat="44.46511" lon="1.80104">
        <ele>181</ele>
        <time>2021-09-01T08:01:49Z</time>
      </trkpt>
      <trkpt lat="44.46587" lon="1.80131">
        <ele>186</ele>
        <time>2021-09-01T08:02:21Z</time>
      </trkpt>
      <trkpt lat="44.46631" lon="1.80145">
        <ele>188</ele>
        <time>2021-09-01T08:02:42Z</time>
      </trkpt>
      <trkpt lat="44.46642" lon="1.80153">
        <ele>189</ele>
        <time>2021-09-01T08:02:48Z</time>
      </trkpt>
      <trkpt lat="44.46647" lon="1.80158">
        <ele>189</ele>
        <time>2021-09-01T08:02:51Z</time>
      </trkpt>
      <trkpt lat="44.4665" lon="1.80165">
        <ele>190</ele>
        <time>2021-09-01T08:02:54Z</time>
      </trkpt>
      <trkpt lat="44.46651" lon="1.80171">
        <ele>190</ele>
        <time>2021-09-01T08:02:56Z</time>
      </trkpt>
      <trkpt lat="44.46644" lon="1.80199">
        <ele>191</ele>
        <time>2021-09-01T08:03:05Z</time>
      </trkpt>
      <trkpt lat="44.46641" lon="1.80206">
        <ele>192</ele>
        <time>2021-09-01T08:03:08Z</time>
      </trkpt>
      <trkpt lat="44.46634" lon="1.80221">
        <ele>193</ele>
        <time>2021-09-01T08:03:14Z</time>
      </trkpt>
      <trkpt lat="44.4663" lon="1.80228">
        <ele>193</ele>
        <time>2021-09-01T08:03:17Z</time>
      </trkpt>
      <trkpt lat="44.46605" lon="1.80305">
        <ele>195</ele>
        <time>2021-09-01T08:03:46Z</time>
      </trkpt>
      <trkpt lat="44.46601" lon="1.8032">
        <ele>195</ele>
        <time>2021-09-01T08:03:52Z</time>
      </trkpt>
      <trkpt lat="44.46586" lon="1.80375">
        <ele>194</ele>
        <time>2021-09-01T08:04:13Z</time>
      </trkpt>
      <trkpt lat="44.46571" lon="1.80456">
        <ele>196</ele>
        <time>2021-09-01T08:04:43Z</time>
      </trkpt>
      <trkpt lat="44.46554" lon="1.80515">
        <ele>201</ele>
        <time>2021-09-01T08:05:07Z</time>
      </trkpt>
      <trkpt lat="44.46516" lon="1.80577">
        <ele>207</ele>
        <time>2021-09-01T08:05:37Z</time>
      </trkpt>
      <trkpt lat="44.46495" lon="1.80606">
        <ele>210</ele>
        <time>2021-09-01T08:05:52Z</time>
      </trkpt>
      <trkpt lat="44.46491" lon="1.80612">
        <ele>210</ele>
        <time>2021-09-01T08:05:55Z</time>
      </trkpt>
      <trkpt lat="44.46465" lon="1.80655">
        <ele>214</ele>
        <time>2021-09-01T08:06:16Z</time>
      </trkpt>
      <trkpt lat="44.46461" lon="1.80662">
        <ele>214</ele>
        <time>2021-09-01T08:06:19Z</time>
      </trkpt>
      <trkpt lat="44.46444" lon="1.80695">
        <ele>218</ele>
        <time>2021-09-01T08:06:34Z</time>
      </trkpt>
      <trkpt lat="44.46438" lon="1.80709">
        <ele>218</ele>
        <time>2021-09-01T08:06:40Z</time>
      </trkpt>
      <trkpt lat="44.46404" lon="1.80775">
        <ele>225</ele>
        <time>2021-09-01T08:07:10Z</time>
      </trkpt>
      <trkpt lat="44.46397" lon="1.80797">
        <ele>226</ele>
        <time>2021-09-01T08:07:19Z</time>
      </trkpt>
      <trkpt lat="44.46391" lon="1.8085">
        <ele>229</ele>
        <time>2021-09-01T08:07:37Z</time>
      </trkpt>
      <trkpt lat="44.46388" lon="1.80865">
        <ele>231</ele>
        <time>2021-09-01T08:07:43Z</time>
      </trkpt>
      <trkpt lat="44.46376" lon="1.80899">
        <ele>232</ele>
        <time>2021-09-01T08:07:58Z</time>
      </trkpt>
      <trkpt lat="44.46369" lon="1.8091">
        <ele>232</ele>
        <time>2021-09-01T08:08:04Z</time>
      </trkpt>
      <trkpt lat="44.46347" lon="1.80946">
        <ele>236</ele>
        <time>2021-09-01T08:08:20Z</time>
      </trkpt>
      <trkpt lat="44.46339" lon="1.80954">
        <ele>237</ele>
        <time>2021-09-01T08:08:26Z</time>
      </trkpt>
      <trkpt lat="44.4633" lon="1.80961">
        <ele>237</ele>
        <time>2021-09-01T08:10:16Z</time>
      </trkpt>
      <trkpt lat="44.46305" lon="1.80981">
        <ele>237</ele>
        <time>2021-09-01T08:10:27Z</time>
      </trkpt>
      <trkpt lat="44.463" lon="1.80983">
        <ele>237</ele>
        <time>2021-09-01T08:10:29Z</time>
      </trkpt>
      <trkpt lat="44.46278" lon="1.80996">
        <ele>237</ele>
        <time>2021-09-01T08:10:37Z</time>
      </trkpt>
      <trkpt lat="44.46234" lon="1.81052">
        <ele>235</ele>
        <time>2021-09-01T08:10:51Z</time>
      </trkpt>
      <trkpt lat="44.46223" lon="1.8106">
        <ele>234</ele>
        <time>2021-09-01T08:10:53Z</time>
      </trkpt>
      <trkpt lat="44.462" lon="1.81068">
        <ele>232</ele>
        <time>2021-09-01T08:10:57Z</time>
      </trkpt>
      <trkpt lat="44.46195" lon="1.81072">
        <ele>232</ele>
        <time>2021-09-01T08:10:58Z</time>
      </trkpt>
      <trkpt lat="44.46191" lon="1.81076">
        <ele>231</ele>
        <time>2021-09-01T08:10:59Z</time>
      </trkpt>
      <trkpt lat="44.4619" lon="1.81084">
        <ele>231</ele>
        <time>2021-09-01T08:11:00Z</time>
      </trkpt>
      <trkpt lat="44.4619" lon="1.81094">
        <ele>230</ele>
        <time>2021-09-01T08:11:01Z</time>
      </trkpt>
      <trkpt lat="44.46191" lon="1.81103">
        <ele>230</ele>
        <time>2021-09-01T08:11:02Z</time>
      </trkpt>
      <trkpt lat="44.46194" lon="1.81111">
        <ele>230</ele>
        <time>2021-09-01T08:11:03Z</time>
      </trkpt>
      <trkpt lat="44.46212" lon="1.81127">
        <ele>230</ele>
        <time>2021-09-01T08:11:07Z</time>
      </trkpt>
      <trkpt lat="44.46217" lon="1.81131">
        <ele>230</ele>
        <time>2021-09-01T08:11:08Z</time>
      </trkpt>
      <trkpt lat="44.46237" lon="1.81133">
        <ele>229</ele>
        <time>2021-09-01T08:11:11Z</time>
      </trkpt>
      <trkpt lat="44.46258" lon="1.8113">
        <ele>228</ele>
        <time>2021-09-01T08:11:14Z</time>
      </trkpt>
      <trkpt lat="44.46326" lon="1.81097">
        <ele>224</ele>
        <time>2021-09-01T08:11:24Z</time>
      </trkpt>
      <trkpt lat="44.46332" lon="1.81096">
        <ele>223</ele>
        <time>2021-09-01T08:11:25Z</time>
      </trkpt>
      <trkpt lat="44.46343" lon="1.81098">
        <ele>221</ele>
        <time>2021-09-01T08:11:27Z</time>
      </trkpt>
      <trkpt lat="44.46509" lon="1.81255">
        <ele>206</ele>
        <time>2021-09-01T08:11:57Z</time>
      </trkpt>
      <trkpt lat="44.46537" lon="1.81283">
        <ele>202</ele>
        <time>2021-09-01T08:12:02Z</time>
      </trkpt>
      <trkpt lat="44.46541" lon="1.8129">
        <ele>201</ele>
        <time>2021-09-01T08:12:03Z</time>
      </trkpt>
      <trkpt lat="44.46543" lon="1.81297">
        <ele>201</ele>
        <time>2021-09-01T08:12:04Z</time>
      </trkpt>
      <trkpt lat="44.46545" lon="1.81305">
        <ele>200</ele>
        <time>2021-09-01T08:12:05Z</time>
      </trkpt>
      <trkpt lat="44.46545" lon="1.81313">
        <ele>200</ele>
        <time>2021-09-01T08:12:06Z</time>
      </trkpt>
      <trkpt lat="44.46539" lon="1.81329">
        <ele>199</ele>
        <time>2021-09-01T08:12:08Z</time>
      </trkpt>
      <trkpt lat="44.46393" lon="1.81488">
        <ele>182</ele>
        <time>2021-09-01T08:12:33Z</time>
      </trkpt>
      <trkpt lat="44.4638" lon="1.81514">
        <ele>181</ele>
        <time>2021-09-01T08:12:36Z</time>
      </trkpt>
      <trkpt lat="44.46376" lon="1.81534">
        <ele>180</ele>
        <time>2021-09-01T08:12:38Z</time>
      </trkpt>
      <trkpt lat="44.46374" lon="1.81569">
        <ele>177</ele>
        <time>2021-09-01T08:12:41Z</time>
      </trkpt>
      <trkpt lat="44.46389" lon="1.81684">
        <ele>172</ele>
        <time>2021-09-01T08:12:51Z</time>
      </trkpt>
      <trkpt lat="44.46389" lon="1.81709">
        <ele>171</ele>
        <time>2021-09-01T08:12:54Z</time>
      </trkpt>
      <trkpt lat="44.46386" lon="1.81726">
        <ele>170</ele>
        <time>2021-09-01T08:12:56Z</time>
      </trkpt>
      <trkpt lat="44.46374" lon="1.81761">
        <ele>168</ele>
        <time>2021-09-01T08:13:00Z</time>
      </trkpt>
      <trkpt lat="44.4636" lon="1.8178">
        <ele>166</ele>
        <time>2021-09-01T08:13:03Z</time>
      </trkpt>
      <trkpt lat="44.46348" lon="1.8179">
        <ele>165</ele>
        <time>2021-09-01T08:13:05Z</time>
      </trkpt>
      <trkpt lat="44.4629" lon="1.81805">
        <ele>162</ele>
        <time>2021-09-01T08:13:13Z</time>
      </trkpt>
      <trkpt lat="44.46269" lon="1.81823">
        <ele>160</ele>
        <time>2021-09-01T08:13:16Z</time>
      </trkpt>
      <trkpt lat="44.46239" lon="1.81863">
        <ele>157</ele>
        <time>2021-09-01T08:13:21Z</time>
      </trkpt>
      <trkpt lat="44.46235" lon="1.81871">
        <ele>156</ele>
        <time>2021-09-01T08:13:22Z</time>
      </trkpt>
      <trkpt lat="44.46234" lon="1.8188">
        <ele>155</ele>
        <time>2021-09-01T08:13:23Z</time>
      </trkpt>
      <trkpt lat="44.46235" lon="1.81891">
        <ele>154</ele>
        <time>2021-09-01T08:13:24Z</time>
      </trkpt>
      <trkpt lat="44.46238" lon="1.81903">
        <ele>153</ele>
        <time>2021-09-01T08:13:25Z</time>
      </trkpt>
      <trkpt lat="44.46242" lon="1.81913">
        <ele>153</ele>
        <time>2021-09-01T08:13:26Z</time>
      </trkpt>
      <trkpt lat="44.46247" lon="1.81919">
        <ele>152</ele>
        <time>2021-09-01T08:13:27Z</time>
      </trkpt>
      <trkpt lat="44.46253" lon="1.81923">
        <ele>152</ele>
        <time>2021-09-01T08:13:28Z</time>
      </trkpt>
      <trkpt lat="44.46271" lon="1.81925">
        <ele>151</ele>
        <time>2021-09-01T08:13:31Z</time>
      </trkpt>
      <trkpt lat="44.46304" lon="1.81912">
        <ele>149</ele>
        <time>2021-09-01T08:13:41Z</time>
      </trkpt>
      <trkpt lat="44.46367" lon="1.81951">
        <ele>164</ele>
        <time>2021-09-01T08:14:11Z</time>
      </trkpt>
      <trkpt lat="44.46416" lon="1.81958">
        <ele>171</ele>
        <time>2021-09-01T08:14:34Z</time>
      </trkpt>
      <trkpt lat="44.4644" lon="1.8195">
        <ele>173</ele>
        <time>2021-09-01T08:14:44Z</time>
      </trkpt>
      <trkpt lat="44.46453" lon="1.81952">
        <ele>175</ele>
        <time>2021-09-01T08:14:50Z</time>
      </trkpt>
      <trkpt lat="44.4646" lon="1.81963">
        <ele>177</ele>
        <time>2021-09-01T08:14:57Z</time>
      </trkpt>
      <trkpt lat="44.46465" lon="1.82032">
        <ele>178</ele>
        <time>2021-09-01T08:15:16Z</time>
      </trkpt>
      <trkpt lat="44.4646" lon="1.82211">
        <ele>176</ele>
        <time>2021-09-01T08:15:48Z</time>
      </trkpt>
      <trkpt lat="44.46463" lon="1.8226">
        <ele>177</ele>
        <time>2021-09-01T08:15:58Z</time>
      </trkpt>
      <trkpt lat="44.46487" lon="1.82503">
        <ele>171</ele>
        <time>2021-09-01T08:16:28Z</time>
      </trkpt>
      <trkpt lat="44.46493" lon="1.82578">
        <ele>171</ele>
        <time>2021-09-01T08:16:41Z</time>
      </trkpt>
      <trkpt lat="44.46511" lon="1.82618">
        <ele>170</ele>
        <time>2021-09-01T08:16:49Z</time>
      </trkpt>
      <trkpt lat="44.46592" lon="1.82844">
        <ele>159</ele>
        <time>2021-09-01T08:17:20Z</time>
      </trkpt>
      <trkpt lat="44.46599" lon="1.82861">
        <ele>158</ele>
        <time>2021-09-01T08:17:22Z</time>
      </trkpt>
      <trkpt lat="44.46608" lon="1.82876">
        <ele>157</ele>
        <time>2021-09-01T08:17:24Z</time>
      </trkpt>
      <trkpt lat="44.46615" lon="1.8288">
        <ele>156</ele>
        <time>2021-09-01T08:17:25Z</time>
      </trkpt>
      <trkpt lat="44.46622" lon="1.82884">
        <ele>155</ele>
        <time>2021-09-01T08:17:26Z</time>
      </trkpt>
      <trkpt lat="44.46648" lon="1.82883">
        <ele>154</ele>
        <time>2021-09-01T08:17:29Z</time>
      </trkpt>
      <trkpt lat="44.46735" lon="1.82863">
        <ele>150</ele>
        <time>2021-09-01T08:17:40Z</time>
      </trkpt>
      <trkpt lat="44.46798" lon="1.82869">
        <ele>147</ele>
        <time>2021-09-01T08:17:49Z</time>
      </trkpt>
      <trkpt lat="44.46814" lon="1.82874">
        <ele>147</ele>
        <time>2021-09-01T08:17:51Z</time>
      </trkpt>
      <trkpt lat="44.46835" lon="1.82892">
        <ele>146</ele>
        <time>2021-09-01T08:17:54Z</time>
      </trkpt>
      <trkpt lat="44.46844" lon="1.82907">
        <ele>146</ele>
        <time>2021-09-01T08:17:56Z</time>
      </trkpt>
      <trkpt lat="44.46854" lon="1.82934">
        <ele>147</ele>
        <time>2021-09-01T08:17:59Z</time>
      </trkpt>
      <trkpt lat="44.46858" lon="1.82961">
        <ele>146</ele>
        <time>2021-09-01T08:18:02Z</time>
      </trkpt>
      <trkpt lat="44.46865" lon="1.83222">
        <ele>148</ele>
        <time>2021-09-01T08:18:32Z</time>
      </trkpt>
      <trkpt lat="44.46863" lon="1.83282">
        <ele>149</ele>
        <time>2021-09-01T08:18:39Z</time>
      </trkpt>
      <trkpt lat="44.46838" lon="1.83505">
        <ele>150</ele>
        <time>2021-09-01T08:19:09Z</time>
      </trkpt>
      <trkpt lat="44.46842" lon="1.83562">
        <ele>150</ele>
        <time>2021-09-01T08:19:17Z</time>
      </trkpt>
      <trkpt lat="44.46848" lon="1.8359">
        <ele>150</ele>
        <time>2021-09-01T08:19:21Z</time>
      </trkpt>
      <trkpt lat="44.46862" lon="1.83626">
        <ele>150</ele>
        <time>2021-09-01T08:19:27Z</time>
      </trkpt>
      <trkpt lat="44.46885" lon="1.83656">
        <ele>149</ele>
        <time>2021-09-01T08:19:33Z</time>
      </trkpt>
      <trkpt lat="44.46917" lon="1.83689">
        <ele>150</ele>
        <time>2021-09-01T08:19:41Z</time>
      </trkpt>
      <trkpt lat="44.46948" lon="1.83705">
        <ele>152</ele>
        <time>2021-09-01T08:19:49Z</time>
      </trkpt>
      <trkpt lat="44.47054" lon="1.83684">
        <ele>155</ele>
        <time>2021-09-01T08:20:21Z</time>
      </trkpt>
      <trkpt lat="44.47125" lon="1.8361">
        <ele>161</ele>
        <time>2021-09-01T08:20:51Z</time>
      </trkpt>
      <trkpt lat="44.47208" lon="1.83586">
        <ele>167</ele>
        <time>2021-09-01T08:21:21Z</time>
      </trkpt>
      <trkpt lat="44.47304" lon="1.83567">
        <ele>171</ele>
        <time>2021-09-01T08:21:53Z</time>
      </trkpt>
      <trkpt lat="44.47399" lon="1.83545">
        <ele>174</ele>
        <time>2021-09-01T08:22:25Z</time>
      </trkpt>
      <trkpt lat="44.47499" lon="1.83541">
        <ele>174</ele>
        <time>2021-09-01T08:22:57Z</time>
      </trkpt>
      <trkpt lat="44.47533" lon="1.83539">
        <ele>171</ele>
        <time>2021-09-01T08:23:09Z</time>
      </trkpt>
      <trkpt lat="44.47555" lon="1.83548">
        <ele>170</ele>
        <time>2021-09-01T08:23:17Z</time>
      </trkpt>
      <trkpt lat="44.47589" lon="1.83573">
        <ele>173</ele>
        <time>2021-09-01T08:23:31Z</time>
      </trkpt>
      <trkpt lat="44.47594" lon="1.83577">
        <ele>173</ele>
        <time>2021-09-01T08:23:33Z</time>
      </trkpt>
      <trkpt lat="44.47673" lon="1.83636">
        <ele>176</ele>
        <time>2021-09-01T08:23:54Z</time>
      </trkpt>
      <trkpt lat="44.47686" lon="1.83641">
        <ele>175</ele>
        <time>2021-09-01T08:23:57Z</time>
      </trkpt>
      <trkpt lat="44.47716" lon="1.83641">
        <ele>173</ele>
        <time>2021-09-01T08:24:02Z</time>
      </trkpt>
      <trkpt lat="44.47748" lon="1.83636">
        <ele>173</ele>
        <time>2021-09-01T08:24:07Z</time>
      </trkpt>
      <trkpt lat="44.47804" lon="1.83614">
        <ele>171</ele>
        <time>2021-09-01T08:24:16Z</time>
      </trkpt>
      <trkpt lat="44.47929" lon="1.83625">
        <ele>169</ele>
        <time>2021-09-01T08:24:41Z</time>
      </trkpt>
      <trkpt lat="44.48104" lon="1.83689">
        <ele>166</ele>
        <time>2021-09-01T08:25:11Z</time>
      </trkpt>
      <trkpt lat="44.48286" lon="1.83738">
        <ele>160</ele>
        <time>2021-09-01T08:25:35Z</time>
      </trkpt>
      <trkpt lat="44.48458" lon="1.83816">
        <ele>157</ele>
        <time>2021-09-01T08:26:05Z</time>
      </trkpt>
      <trkpt lat="44.4855" lon="1.83855">
        <ele>157</ele>
        <time>2021-09-01T08:26:21Z</time>
      </trkpt>
      <trkpt lat="44.48574" lon="1.83877">
        <ele>156</ele>
        <time>2021-09-01T08:26:26Z</time>
      </trkpt>
      <trkpt lat="44.48582" lon="1.83888">
        <ele>155</ele>
        <time>2021-09-01T08:26:28Z</time>
      </trkpt>
      <trkpt lat="44.48588" lon="1.83903">
        <ele>155</ele>
        <time>2021-09-01T08:26:30Z</time>
      </trkpt>
      <trkpt lat="44.48583" lon="1.84126">
        <ele>153</ele>
        <time>2021-09-01T08:26:55Z</time>
      </trkpt>
      <trkpt lat="44.48583" lon="1.84136">
        <ele>153</ele>
        <time>2021-09-01T08:26:57Z</time>
      </trkpt>
      <trkpt lat="44.48581" lon="1.84152">
        <ele>154</ele>
        <time>2021-09-01T08:27:02Z</time>
      </trkpt>
      <trkpt lat="44.48578" lon="1.84158">
        <ele>155</ele>
        <time>2021-09-01T08:27:34Z</time>
      </trkpt>
      <trkpt lat="44.48576" lon="1.84166">
        <ele>155</ele>
        <time>2021-09-01T08:27:37Z</time>
      </trkpt>
      <trkpt lat="44.48586" lon="1.84171">
        <ele>154</ele>
        <time>2021-09-01T08:27:46Z</time>
      </trkpt>
      <trkpt lat="44.48591" lon="1.84171">
        <ele>154</ele>
        <time>2021-09-01T08:27:49Z</time>
      </trkpt>
      <trkpt lat="44.48595" lon="1.84176">
        <ele>155</ele>
        <time>2021-09-01T08:27:52Z</time>
      </trkpt>
      <trkpt lat="44.48619" lon="1.84189">
        <ele>155</ele>
        <time>2021-09-01T08:28:00Z</time>
      </trkpt>
      <trkpt lat="44.48631" lon="1.84192">
        <ele>155</ele>
        <time>2021-09-01T08:28:04Z</time>
      </trkpt>
      <trkpt lat="44.48637" lon="1.8419">
        <ele>155</ele>
        <time>2021-09-01T08:28:06Z</time>
      </trkpt>
      <trkpt lat="44.48642" lon="1.84194">
        <ele>154</ele>
        <time>2021-09-01T08:28:08Z</time>
      </trkpt>
      <trkpt lat="44.48649" lon="1.84216">
        <ele>152</ele>
        <time>2021-09-01T08:28:15Z</time>
      </trkpt>
      <trkpt lat="44.48651" lon="1.84231">
        <ele>150</ele>
        <time>2021-09-01T08:28:22Z</time>
      </trkpt>
      <trkpt lat="44.48656" lon="1.84245">
        <ele>149</ele>
        <time>2021-09-01T08:28:28Z</time>
      </trkpt>
      <trkpt lat="44.4866" lon="1.84261">
        <ele>149</ele>
        <time>2021-09-01T08:28:32Z</time>
      </trkpt>
      <trkpt lat="44.4866" lon="1.84269">
        <ele>149</ele>
        <time>2021-09-01T08:28:34Z</time>
      </trkpt>
      <trkpt lat="44.48658" lon="1.84298">
        <ele>149</ele>
        <time>2021-09-01T08:28:45Z</time>
      </trkpt>
      <trkpt lat="44.48662" lon="1.843">
        <ele>148</ele>
        <time>2021-09-01T08:29:56Z</time>
      </trkpt>
      <trkpt lat="44.48667" lon="1.84296">
        <ele>146</ele>
        <time>2021-09-01T08:30:05Z</time>
      </trkpt>
      <trkpt lat="44.48669" lon="1.84291">
        <ele>145</ele>
        <time>2021-09-01T08:32:51Z</time>
      </trkpt>
      <trkpt lat="44.48672" lon="1.84286">
        <ele>151</ele>
        <time>2021-09-01T08:33:45Z</time>
      </trkpt>
      <trkpt lat="44.4867" lon="1.84277">
        <ele>157</ele>
        <time>2021-09-01T08:34:30Z</time>
      </trkpt>
      <trkpt lat="44.48667" lon="1.84291">
        <ele>167</ele>
        <time>2021-09-01T08:39:12Z</time>
      </trkpt>
      <trkpt lat="44.48646" lon="1.84276">
        <ele>188</ele>
        <time>2021-09-01T08:39:14Z</time>
      </trkpt>
      <trkpt lat="44.48645" lon="1.84282">
        <ele>187</ele>
        <time>2021-09-01T08:39:21Z</time>
      </trkpt>
      <trkpt lat="44.48643" lon="1.84288">
        <ele>185</ele>
        <time>2021-09-01T08:39:49Z</time>
      </trkpt>
      <trkpt lat="44.4864" lon="1.84293">
        <ele>184</ele>
        <time>2021-09-01T08:40:02Z</time>
      </trkpt>
      <trkpt lat="44.48642" lon="1.84303">
        <ele>181</ele>
        <time>2021-09-01T08:41:27Z</time>
      </trkpt>
      <trkpt lat="44.48639" lon="1.84308">
        <ele>173</ele>
        <time>2021-09-01T08:43:20Z</time>
      </trkpt>
      <trkpt lat="44.48635" lon="1.84312">
        <ele>167</ele>
        <time>2021-09-01T08:43:24Z</time>
      </trkpt>
      <trkpt lat="44.48638" lon="1.84318">
        <ele>163</ele>
        <time>2021-09-01T08:45:41Z</time>
      </trkpt>
      <trkpt lat="44.48629" lon="1.84328">
        <ele>163</ele>
        <time>2021-09-01T08:45:50Z</time>
      </trkpt>
      <trkpt lat="44.48664" lon="1.84317">
        <ele>164</ele>
        <time>2021-09-01T08:46:03Z</time>
      </trkpt>
      <trkpt lat="44.48685" lon="1.84307">
        <ele>164</ele>
        <time>2021-09-01T08:46:07Z</time>
      </trkpt>
      <trkpt lat="44.48684" lon="1.843">
        <ele>164</ele>
        <time>2021-09-01T08:46:11Z</time>
      </trkpt>
      <trkpt lat="44.48607" lon="1.84318">
        <ele>165</ele>
        <time>2021-09-01T08:46:31Z</time>
      </trkpt>
      <trkpt lat="44.48617" lon="1.84302">
        <ele>165</ele>
        <time>2021-09-01T08:46:39Z</time>
      </trkpt>
      <trkpt lat="44.48643" lon="1.84258">
        <ele>165</ele>
        <time>2021-09-01T08:46:52Z</time>
      </trkpt>
      <trkpt lat="44.48634" lon="1.8426">
        <ele>165</ele>
        <time>2021-09-01T08:47:01Z</time>
      </trkpt>
      <trkpt lat="44.48623" lon="1.84294">
        <ele>164</ele>
        <time>2021-09-01T08:47:25Z</time>
      </trkpt>
      <trkpt lat="44.48642" lon="1.84328">
        <ele>165</ele>
        <time>2021-09-01T08:47:27Z</time>
      </trkpt>
      <trkpt lat="44.4865" lon="1.84329">
        <ele>166</ele>
        <time>2021-09-01T08:47:37Z</time>
      </trkpt>
      <trkpt lat="44.4865" lon="1.8432">
        <ele>166</ele>
        <time>2021-09-01T08:47:38Z</time>
      </trkpt>
      <trkpt lat="44.48639" lon="1.84323">
        <ele>165</ele>
        <time>2021-09-01T08:47:40Z</time>
      </trkpt>
      <trkpt lat="44.4863" lon="1.84324">
        <ele>162</ele>
        <time>2021-09-01T08:47:41Z</time>
      </trkpt>
      <trkpt lat="44.48625" lon="1.84326">
        <ele>157</ele>
        <time>2021-09-01T08:48:36Z</time>
      </trkpt>
      <trkpt lat="44.4862" lon="1.84333">
        <ele>158</ele>
        <time>2021-09-01T08:48:47Z</time>
      </trkpt>
      <trkpt lat="44.48613" lon="1.84335">
        <ele>159</ele>
        <time>2021-09-01T08:49:06Z</time>
      </trkpt>
      <trkpt lat="44.48607" lon="1.84337">
        <ele>160</ele>
        <time>2021-09-01T08:49:08Z</time>
      </trkpt>
      <trkpt lat="44.48605" lon="1.84343">
        <ele>159</ele>
        <time>2021-09-01T08:49:15Z</time>
      </trkpt>
      <trkpt lat="44.486" lon="1.84347">
        <ele>160</ele>
        <time>2021-09-01T08:49:25Z</time>
      </trkpt>
      <trkpt lat="44.48601" lon="1.84353">
        <ele>159</ele>
        <time>2021-09-01T08:49:32Z</time>
      </trkpt>
      <trkpt lat="44.48609" lon="1.84345">
        <ele>157</ele>
        <time>2021-09-01T08:49:52Z</time>
      </trkpt>
      <trkpt lat="44.48614" lon="1.84341">
        <ele>160</ele>
        <time>2021-09-01T08:50:08Z</time>
      </trkpt>
      <trkpt lat="44.48618" lon="1.84338">
        <ele>161</ele>
        <time>2021-09-01T08:50:12Z</time>
      </trkpt>
      <trkpt lat="44.48636" lon="1.84322">
        <ele>158</ele>
        <time>2021-09-01T08:50:32Z</time>
      </trkpt>
      <trkpt lat="44.48641" lon="1.84321">
        <ele>157</ele>
        <time>2021-09-01T08:50:38Z</time>
      </trkpt>
      <trkpt lat="44.48654" lon="1.843">
        <ele>159</ele>
        <time>2021-09-01T08:51:05Z</time>
      </trkpt>
      <trkpt lat="44.48671" lon="1.84286">
        <ele>159</ele>
        <time>2021-09-01T08:55:11Z</time>
      </trkpt>
      <trkpt lat="44.48674" lon="1.84281">
        <ele>158</ele>
        <time>2021-09-01T08:55:15Z</time>
      </trkpt>
      <trkpt lat="44.48679" lon="1.84275">
        <ele>157</ele>
        <time>2021-09-01T08:55:19Z</time>
      </trkpt>
      <trkpt lat="44.48689" lon="1.8427">
        <ele>158</ele>
        <time>2021-09-01T08:55:25Z</time>
      </trkpt>
      <trkpt lat="44.48694" lon="1.84268">
        <ele>157</ele>
        <time>2021-09-01T08:55:27Z</time>
      </trkpt>
      <trkpt lat="44.48696" lon="1.8426">
        <ele>156</ele>
        <time>2021-09-01T08:55:30Z</time>
      </trkpt>
      <trkpt lat="44.48687" lon="1.8424">
        <ele>154</ele>
        <time>2021-09-01T08:55:37Z</time>
      </trkpt>
      <trkpt lat="44.48631" lon="1.8418">
        <ele>148</ele>
        <time>2021-09-01T08:56:05Z</time>
      </trkpt>
      <trkpt lat="44.48625" lon="1.84177">
        <ele>147</ele>
        <time>2021-09-01T08:56:07Z</time>
      </trkpt>
      <trkpt lat="44.48536" lon="1.84164">
        <ele>149</ele>
        <time>2021-09-01T08:56:35Z</time>
      </trkpt>
      <trkpt lat="44.4853" lon="1.84167">
        <ele>149</ele>
        <time>2021-09-01T08:56:38Z</time>
      </trkpt>
      <trkpt lat="44.48512" lon="1.84179">
        <ele>150</ele>
        <time>2021-09-01T08:56:46Z</time>
      </trkpt>
      <trkpt lat="44.48508" lon="1.84184">
        <ele>149</ele>
        <time>2021-09-01T08:56:48Z</time>
      </trkpt>
      <trkpt lat="44.48481" lon="1.84197">
        <ele>150</ele>
        <time>2021-09-01T08:56:56Z</time>
      </trkpt>
      <trkpt lat="44.48478" lon="1.84203">
        <ele>147</ele>
        <time>2021-09-01T08:57:52Z</time>
      </trkpt>
      <trkpt lat="44.48476" lon="1.84217">
        <ele>146</ele>
        <time>2021-09-01T08:57:58Z</time>
      </trkpt>
      <trkpt lat="44.48473" lon="1.84223">
        <ele>145</ele>
        <time>2021-09-01T08:58:00Z</time>
      </trkpt>
      <trkpt lat="44.48469" lon="1.8423">
        <ele>145</ele>
        <time>2021-09-01T08:58:03Z</time>
      </trkpt>
      <trkpt lat="44.48466" lon="1.84238">
        <ele>144</ele>
        <time>2021-09-01T08:58:06Z</time>
      </trkpt>
      <trkpt lat="44.48465" lon="1.84248">
        <ele>144</ele>
        <time>2021-09-01T08:58:09Z</time>
      </trkpt>
      <trkpt lat="44.48469" lon="1.84303">
        <ele>142</ele>
        <time>2021-09-01T08:58:21Z</time>
      </trkpt>
      <trkpt lat="44.48473" lon="1.84331">
        <ele>140</ele>
        <time>2021-09-01T08:58:27Z</time>
      </trkpt>
      <trkpt lat="44.48473" lon="1.8434">
        <ele>138</ele>
        <time>2021-09-01T08:58:29Z</time>
      </trkpt>
      <trkpt lat="44.48472" lon="1.84347">
        <ele>137</ele>
        <time>2021-09-01T08:58:31Z</time>
      </trkpt>
      <trkpt lat="44.48464" lon="1.84358">
        <ele>137</ele>
        <time>2021-09-01T08:58:35Z</time>
      </trkpt>
      <trkpt lat="44.48369" lon="1.84415">
        <ele>142</ele>
        <time>2021-09-01T08:59:05Z</time>
      </trkpt>
      <trkpt lat="44.48347" lon="1.84421">
        <ele>143</ele>
        <time>2021-09-01T08:59:14Z</time>
      </trkpt>
      <trkpt lat="44.48344" lon="1.84427">
        <ele>146</ele>
        <time>2021-09-01T08:59:42Z</time>
      </trkpt>
      <trkpt lat="44.4834" lon="1.84423">
        <ele>146</ele>
        <time>2021-09-01T08:59:57Z</time>
      </trkpt>
      <trkpt lat="44.48311" lon="1.84441">
        <ele>146</ele>
        <time>2021-09-01T09:00:29Z</time>
      </trkpt>
      <trkpt lat="44.48279" lon="1.84458">
        <ele>144</ele>
        <time>2021-09-01T09:01:02Z</time>
      </trkpt>
      <trkpt lat="44.48256" lon="1.8447">
        <ele>142</ele>
        <time>2021-09-01T09:01:24Z</time>
      </trkpt>
      <trkpt lat="44.48247" lon="1.84473">
        <ele>140</ele>
        <time>2021-09-01T09:01:54Z</time>
      </trkpt>
      <trkpt lat="44.48241" lon="1.84478">
        <ele>139</ele>
        <time>2021-09-01T09:02:24Z</time>
      </trkpt>
      <trkpt lat="44.48231" lon="1.84493">
        <ele>138</ele>
        <time>2021-09-01T09:02:31Z</time>
      </trkpt>
      <trkpt lat="44.48237" lon="1.84501">
        <ele>138</ele>
        <time>2021-09-01T09:02:33Z</time>
      </trkpt>
      <trkpt lat="44.48248" lon="1.84504">
        <ele>139</ele>
        <time>2021-09-01T09:02:37Z</time>
      </trkpt>
      <trkpt lat="44.48261" lon="1.84529">
        <ele>139</ele>
        <time>2021-09-01T09:02:42Z</time>
      </trkpt>
      <trkpt lat="44.4827" lon="1.84567">
        <ele>140</ele>
        <time>2021-09-01T09:02:48Z</time>
      </trkpt>
      <trkpt lat="44.48278" lon="1.8461">
        <ele>145</ele>
        <time>2021-09-01T09:02:56Z</time>
      </trkpt>
      <trkpt lat="44.48282" lon="1.84614">
        <ele>147</ele>
        <time>2021-09-01T09:03:19Z</time>
      </trkpt>
      <trkpt lat="44.48281" lon="1.84622">
        <ele>147</ele>
        <time>2021-09-01T09:03:25Z</time>
      </trkpt>
      <trkpt lat="44.48276" lon="1.84755">
        <ele>149</ele>
        <time>2021-09-01T09:03:55Z</time>
      </trkpt>
      <trkpt lat="44.4827" lon="1.84908">
        <ele>151</ele>
        <time>2021-09-01T09:04:25Z</time>
      </trkpt>
      <trkpt lat="44.48256" lon="1.85093">
        <ele>150</ele>
        <time>2021-09-01T09:04:56Z</time>
      </trkpt>
      <trkpt lat="44.48247" lon="1.85212">
        <ele>151</ele>
        <time>2021-09-01T09:05:15Z</time>
      </trkpt>
      <trkpt lat="44.48262" lon="1.85363">
        <ele>150</ele>
        <time>2021-09-01T09:05:45Z</time>
      </trkpt>
      <trkpt lat="44.48262" lon="1.85371">
        <ele>150</ele>
        <time>2021-09-01T09:05:47Z</time>
      </trkpt>
      <trkpt lat="44.48263" lon="1.85381">
        <ele>150</ele>
        <time>2021-09-01T09:05:49Z</time>
      </trkpt>
      <trkpt lat="44.48271" lon="1.85447">
        <ele>146</ele>
        <time>2021-09-01T09:06:01Z</time>
      </trkpt>
      <trkpt lat="44.48275" lon="1.85543">
        <ele>151</ele>
        <time>2021-09-01T09:06:19Z</time>
      </trkpt>
      <trkpt lat="44.4828" lon="1.85575">
        <ele>150</ele>
        <time>2021-09-01T09:06:25Z</time>
      </trkpt>
      <trkpt lat="44.48291" lon="1.85631">
        <ele>147</ele>
        <time>2021-09-01T09:06:35Z</time>
      </trkpt>
      <trkpt lat="44.48304" lon="1.85685">
        <ele>149</ele>
        <time>2021-09-01T09:06:45Z</time>
      </trkpt>
      <trkpt lat="44.48307" lon="1.85737">
        <ele>150</ele>
        <time>2021-09-01T09:06:55Z</time>
      </trkpt>
      <trkpt lat="44.48304" lon="1.85891">
        <ele>153</ele>
        <time>2021-09-01T09:07:25Z</time>
      </trkpt>
      <trkpt lat="44.48307" lon="1.85942">
        <ele>154</ele>
        <time>2021-09-01T09:07:35Z</time>
      </trkpt>
      <trkpt lat="44.48331" lon="1.86043">
        <ele>154</ele>
        <time>2021-09-01T09:07:52Z</time>
      </trkpt>
      <trkpt lat="44.48348" lon="1.86083">
        <ele>153</ele>
        <time>2021-09-01T09:07:58Z</time>
      </trkpt>
      <trkpt lat="44.4838" lon="1.86136">
        <ele>152</ele>
        <time>2021-09-01T09:08:06Z</time>
      </trkpt>
      <trkpt lat="44.48393" lon="1.86177">
        <ele>151</ele>
        <time>2021-09-01T09:08:11Z</time>
      </trkpt>
      <trkpt lat="44.48408" lon="1.86305">
        <ele>150</ele>
        <time>2021-09-01T09:08:27Z</time>
      </trkpt>
      <trkpt lat="44.48401" lon="1.86506">
        <ele>148</ele>
        <time>2021-09-01T09:08:58Z</time>
      </trkpt>
      <trkpt lat="44.48404" lon="1.86572">
        <ele>148</ele>
        <time>2021-09-01T09:09:08Z</time>
      </trkpt>
      <trkpt lat="44.48423" lon="1.8678">
        <ele>147</ele>
        <time>2021-09-01T09:09:38Z</time>
      </trkpt>
      <trkpt lat="44.48431" lon="1.86935">
        <ele>146</ele>
        <time>2021-09-01T09:10:00Z</time>
      </trkpt>
      <trkpt lat="44.48424" lon="1.86969">
        <ele>145</ele>
        <time>2021-09-01T09:10:05Z</time>
      </trkpt>
      <trkpt lat="44.48418" lon="1.86995">
        <ele>143</ele>
        <time>2021-09-01T09:10:09Z</time>
      </trkpt>
      <trkpt lat="44.48417" lon="1.87008">
        <ele>142</ele>
        <time>2021-09-01T09:10:11Z</time>
      </trkpt>
      <trkpt lat="44.48415" lon="1.87019">
        <ele>141</ele>
        <time>2021-09-01T09:10:13Z</time>
      </trkpt>
      <trkpt lat="44.48412" lon="1.87043">
        <ele>139</ele>
        <time>2021-09-01T09:10:17Z</time>
      </trkpt>
      <trkpt lat="44.48399" lon="1.87113">
        <ele>131</ele>
        <time>2021-09-01T09:10:28Z</time>
      </trkpt>
      <trkpt lat="44.48387" lon="1.87146">
        <ele>128</ele>
        <time>2021-09-01T09:10:33Z</time>
      </trkpt>
      <trkpt lat="44.48361" lon="1.8728">
        <ele>137</ele>
        <time>2021-09-01T09:10:58Z</time>
      </trkpt>
      <trkpt lat="44.48352" lon="1.87397">
        <ele>150</ele>
        <time>2021-09-01T09:11:29Z</time>
      </trkpt>
      <trkpt lat="44.48354" lon="1.87419">
        <ele>151</ele>
        <time>2021-09-01T09:11:36Z</time>
      </trkpt>
      <trkpt lat="44.48349" lon="1.87469">
        <ele>155</ele>
        <time>2021-09-01T09:11:50Z</time>
      </trkpt>
      <trkpt lat="44.48349" lon="1.87477">
        <ele>155</ele>
        <time>2021-09-01T09:11:52Z</time>
      </trkpt>
      <trkpt lat="44.48344" lon="1.87595">
        <ele>162</ele>
        <time>2021-09-01T09:12:22Z</time>
      </trkpt>
      <trkpt lat="44.48342" lon="1.87677">
        <ele>165</ele>
        <time>2021-09-01T09:12:42Z</time>
      </trkpt>
      <trkpt lat="44.48347" lon="1.87737">
        <ele>168</ele>
        <time>2021-09-01T09:12:56Z</time>
      </trkpt>
      <trkpt lat="44.48346" lon="1.87746">
        <ele>168</ele>
        <time>2021-09-01T09:12:58Z</time>
      </trkpt>
      <trkpt lat="44.48344" lon="1.87762">
        <ele>167</ele>
        <time>2021-09-01T09:13:02Z</time>
      </trkpt>
      <trkpt lat="44.48339" lon="1.87818">
        <ele>168</ele>
        <time>2021-09-01T09:13:14Z</time>
      </trkpt>
      <trkpt lat="44.48341" lon="1.87904">
        <ele>171</ele>
        <time>2021-09-01T09:13:28Z</time>
      </trkpt>
      <trkpt lat="44.48329" lon="1.88106">
        <ele>170</ele>
        <time>2021-09-01T09:13:59Z</time>
      </trkpt>
      <trkpt lat="44.48331" lon="1.88137">
        <ele>169</ele>
        <time>2021-09-01T09:14:03Z</time>
      </trkpt>
      <trkpt lat="44.48347" lon="1.88214">
        <ele>169</ele>
        <time>2021-09-01T09:14:14Z</time>
      </trkpt>
      <trkpt lat="44.48349" lon="1.88248">
        <ele>170</ele>
        <time>2021-09-01T09:14:19Z</time>
      </trkpt>
      <trkpt lat="44.48393" lon="1.88433">
        <ele>162</ele>
        <time>2021-09-01T09:14:49Z</time>
      </trkpt>
      <trkpt lat="44.484" lon="1.88453">
        <ele>162</ele>
        <time>2021-09-01T09:14:52Z</time>
      </trkpt>
      <trkpt lat="44.48411" lon="1.8848">
        <ele>161</ele>
        <time>2021-09-01T09:14:56Z</time>
      </trkpt>
      <trkpt lat="44.48419" lon="1.88507">
        <ele>160</ele>
        <time>2021-09-01T09:15:00Z</time>
      </trkpt>
      <trkpt lat="44.48441" lon="1.88541">
        <ele>159</ele>
        <time>2021-09-01T09:15:06Z</time>
      </trkpt>
      <trkpt lat="44.48583" lon="1.88691">
        <ele>160</ele>
        <time>2021-09-01T09:15:36Z</time>
      </trkpt>
      <trkpt lat="44.48721" lon="1.88777">
        <ele>160</ele>
        <time>2021-09-01T09:16:00Z</time>
      </trkpt>
      <trkpt lat="44.48876" lon="1.88842">
        <ele>156</ele>
        <time>2021-09-01T09:16:30Z</time>
      </trkpt>
      <trkpt lat="44.48899" lon="1.88849">
        <ele>156</ele>
        <time>2021-09-01T09:16:41Z</time>
      </trkpt>
      <trkpt lat="44.48905" lon="1.88849">
        <ele>156</ele>
        <time>2021-09-01T09:16:45Z</time>
      </trkpt>
      <trkpt lat="44.48922" lon="1.88852">
        <ele>156</ele>
        <time>2021-09-01T09:18:10Z</time>
      </trkpt>
      <trkpt lat="44.48928" lon="1.88854">
        <ele>157</ele>
        <time>2021-09-01T09:19:14Z</time>
      </trkpt>
      <trkpt lat="44.49007" lon="1.88866">
        <ele>154</ele>
        <time>2021-09-01T09:19:34Z</time>
      </trkpt>
      <trkpt lat="44.49158" lon="1.88877">
        <ele>152</ele>
        <time>2021-09-01T09:20:04Z</time>
      </trkpt>
      <trkpt lat="44.49291" lon="1.88878">
        <ele>152</ele>
        <time>2021-09-01T09:20:30Z</time>
      </trkpt>
      <trkpt lat="44.49424" lon="1.88854">
        <ele>155</ele>
        <time>2021-09-01T09:21:00Z</time>
      </trkpt>
      <trkpt lat="44.49469" lon="1.8884">
        <ele>158</ele>
        <time>2021-09-01T09:21:12Z</time>
      </trkpt>
      <trkpt lat="44.49494" lon="1.88842">
        <ele>159</ele>
        <time>2021-09-01T09:21:20Z</time>
      </trkpt>
      <trkpt lat="44.49528" lon="1.88932">
        <ele>158</ele>
        <time>2021-09-01T09:21:50Z</time>
      </trkpt>
      <trkpt lat="44.49539" lon="1.8902">
        <ele>158</ele>
        <time>2021-09-01T09:22:21Z</time>
      </trkpt>
      <trkpt lat="44.4955" lon="1.89111">
        <ele>163</ele>
        <time>2021-09-01T09:22:52Z</time>
      </trkpt>
      <trkpt lat="44.49595" lon="1.89162">
        <ele>167</ele>
        <time>2021-09-01T09:23:22Z</time>
      </trkpt>
      <trkpt lat="44.49621" lon="1.8918">
        <ele>169</ele>
        <time>2021-09-01T09:23:36Z</time>
      </trkpt>
      <trkpt lat="44.49624" lon="1.89186">
        <ele>168</ele>
        <time>2021-09-01T09:23:39Z</time>
      </trkpt>
      <trkpt lat="44.49625" lon="1.89229">
        <ele>167</ele>
        <time>2021-09-01T09:23:52Z</time>
      </trkpt>
      <trkpt lat="44.49623" lon="1.89236">
        <ele>167</ele>
        <time>2021-09-01T09:23:55Z</time>
      </trkpt>
      <trkpt lat="44.49619" lon="1.89247">
        <ele>168</ele>
        <time>2021-09-01T09:23:59Z</time>
      </trkpt>
      <trkpt lat="44.496" lon="1.89267">
        <ele>168</ele>
        <time>2021-09-01T09:24:10Z</time>
      </trkpt>
      <trkpt lat="44.49586" lon="1.89286">
        <ele>168</ele>
        <time>2021-09-01T09:24:18Z</time>
      </trkpt>
      <trkpt lat="44.49553" lon="1.89369">
        <ele>174</ele>
        <time>2021-09-01T09:24:49Z</time>
      </trkpt>
      <trkpt lat="44.49537" lon="1.89412">
        <ele>178</ele>
        <time>2021-09-01T09:25:05Z</time>
      </trkpt>
      <trkpt lat="44.49532" lon="1.89435">
        <ele>179</ele>
        <time>2021-09-01T09:25:13Z</time>
      </trkpt>
      <trkpt lat="44.49539" lon="1.89538">
        <ele>178</ele>
        <time>2021-09-01T09:25:44Z</time>
      </trkpt>
      <trkpt lat="44.49551" lon="1.89653">
        <ele>183</ele>
        <time>2021-09-01T09:26:12Z</time>
      </trkpt>
      <trkpt lat="44.4955" lon="1.89677">
        <ele>184</ele>
        <time>2021-09-01T09:26:18Z</time>
      </trkpt>
      <trkpt lat="44.49549" lon="1.89684">
        <ele>183</ele>
        <time>2021-09-01T09:26:20Z</time>
      </trkpt>
      <trkpt lat="44.49545" lon="1.8969">
        <ele>184</ele>
        <time>2021-09-01T09:26:22Z</time>
      </trkpt>
      <trkpt lat="44.49539" lon="1.89689">
        <ele>184</ele>
        <time>2021-09-01T09:26:24Z</time>
      </trkpt>
      <trkpt lat="44.49535" lon="1.89682">
        <ele>186</ele>
        <time>2021-09-01T09:26:26Z</time>
      </trkpt>
      <trkpt lat="44.49536" lon="1.89673">
        <ele>187</ele>
        <time>2021-09-01T09:26:28Z</time>
      </trkpt>
      <trkpt lat="44.49536" lon="1.89665">
        <ele>187</ele>
        <time>2021-09-01T09:26:30Z</time>
      </trkpt>
      <trkpt lat="44.49529" lon="1.89636">
        <ele>192</ele>
        <time>2021-09-01T09:26:41Z</time>
      </trkpt>
      <trkpt lat="44.49527" lon="1.89628">
        <ele>193</ele>
        <time>2021-09-01T09:26:44Z</time>
      </trkpt>
      <trkpt lat="44.49523" lon="1.89605">
        <ele>196</ele>
        <time>2021-09-01T09:26:53Z</time>
      </trkpt>
      <trkpt lat="44.49499" lon="1.89529">
        <ele>203</ele>
        <time>2021-09-01T09:27:23Z</time>
      </trkpt>
      <trkpt lat="44.49496" lon="1.89522">
        <ele>203</ele>
        <time>2021-09-01T09:27:26Z</time>
      </trkpt>
      <trkpt lat="44.49489" lon="1.89509">
        <ele>204</ele>
        <time>2021-09-01T09:27:32Z</time>
      </trkpt>
      <trkpt lat="44.49455" lon="1.89454">
        <ele>210</ele>
        <time>2021-09-01T09:27:58Z</time>
      </trkpt>
      <trkpt lat="44.49451" lon="1.89449">
        <ele>210</ele>
        <time>2021-09-01T09:28:01Z</time>
      </trkpt>
      <trkpt lat="44.49446" lon="1.89443">
        <ele>210</ele>
        <time>2021-09-01T09:28:05Z</time>
      </trkpt>
      <trkpt lat="44.49442" lon="1.89438">
        <ele>210</ele>
        <time>2021-09-01T09:28:08Z</time>
      </trkpt>
      <trkpt lat="44.49437" lon="1.89432">
        <ele>212</ele>
        <time>2021-09-01T09:28:11Z</time>
      </trkpt>
      <trkpt lat="44.49421" lon="1.89423">
        <ele>214</ele>
        <time>2021-09-01T09:28:20Z</time>
      </trkpt>
      <trkpt lat="44.49369" lon="1.8941">
        <ele>216</ele>
        <time>2021-09-01T09:28:47Z</time>
      </trkpt>
      <trkpt lat="44.49341" lon="1.89414">
        <ele>217</ele>
        <time>2021-09-01T09:29:02Z</time>
      </trkpt>
      <trkpt lat="44.49274" lon="1.8943">
        <ele>223</ele>
        <time>2021-09-01T09:29:35Z</time>
      </trkpt>
      <trkpt lat="44.49268" lon="1.89431">
        <ele>223</ele>
        <time>2021-09-01T09:29:38Z</time>
      </trkpt>
      <trkpt lat="44.49262" lon="1.89433">
        <ele>224</ele>
        <time>2021-09-01T09:29:41Z</time>
      </trkpt>
      <trkpt lat="44.49197" lon="1.89451">
        <ele>228</ele>
        <time>2021-09-01T09:30:14Z</time>
      </trkpt>
      <trkpt lat="44.49179" lon="1.8946">
        <ele>229</ele>
        <time>2021-09-01T09:30:23Z</time>
      </trkpt>
      <trkpt lat="44.49173" lon="1.89462">
        <ele>230</ele>
        <time>2021-09-01T09:30:26Z</time>
      </trkpt>
      <trkpt lat="44.49168" lon="1.89466">
        <ele>231</ele>
        <time>2021-09-01T09:30:29Z</time>
      </trkpt>
      <trkpt lat="44.49162" lon="1.8947">
        <ele>231</ele>
        <time>2021-09-01T09:30:32Z</time>
      </trkpt>
      <trkpt lat="44.49158" lon="1.89472">
        <ele>231</ele>
        <time>2021-09-01T09:30:34Z</time>
      </trkpt>
      <trkpt lat="44.49139" lon="1.89487">
        <ele>232</ele>
        <time>2021-09-01T09:30:44Z</time>
      </trkpt>
      <trkpt lat="44.49135" lon="1.8949">
        <ele>233</ele>
        <time>2021-09-01T09:30:46Z</time>
      </trkpt>
      <trkpt lat="44.49131" lon="1.89494">
        <ele>233</ele>
        <time>2021-09-01T09:30:48Z</time>
      </trkpt>
      <trkpt lat="44.49122" lon="1.89502">
        <ele>234</ele>
        <time>2021-09-01T09:30:53Z</time>
      </trkpt>
      <trkpt lat="44.49079" lon="1.89561">
        <ele>236</ele>
        <time>2021-09-01T09:31:23Z</time>
      </trkpt>
      <trkpt lat="44.49033" lon="1.89625">
        <ele>240</ele>
        <time>2021-09-01T09:31:54Z</time>
      </trkpt>
      <trkpt lat="44.4901" lon="1.89654">
        <ele>242</ele>
        <time>2021-09-01T09:32:08Z</time>
      </trkpt>
      <trkpt lat="44.48991" lon="1.89666">
        <ele>242</ele>
        <time>2021-09-01T09:32:17Z</time>
      </trkpt>
      <trkpt lat="44.48986" lon="1.89672">
        <ele>243</ele>
        <time>2021-09-01T09:32:20Z</time>
      </trkpt>
      <trkpt lat="44.48984" lon="1.8968">
        <ele>243</ele>
        <time>2021-09-01T09:32:23Z</time>
      </trkpt>
      <trkpt lat="44.48986" lon="1.89686">
        <ele>244</ele>
        <time>2021-09-01T09:32:25Z</time>
      </trkpt>
      <trkpt lat="44.48993" lon="1.89687">
        <ele>245</ele>
        <time>2021-09-01T09:32:28Z</time>
      </trkpt>
      <trkpt lat="44.49002" lon="1.89679">
        <ele>246</ele>
        <time>2021-09-01T09:32:32Z</time>
      </trkpt>
      <trkpt lat="44.49015" lon="1.89662">
        <ele>248</ele>
        <time>2021-09-01T09:32:38Z</time>
      </trkpt>
      <trkpt lat="44.49028" lon="1.89649">
        <ele>248</ele>
        <time>2021-09-01T09:32:44Z</time>
      </trkpt>
      <trkpt lat="44.49055" lon="1.89634">
        <ele>251</ele>
        <time>2021-09-01T09:32:54Z</time>
      </trkpt>
      <trkpt lat="44.4913" lon="1.89575">
        <ele>255</ele>
        <time>2021-09-01T09:33:24Z</time>
      </trkpt>
      <trkpt lat="44.49165" lon="1.89547">
        <ele>258</ele>
        <time>2021-09-01T09:33:38Z</time>
      </trkpt>
      <trkpt lat="44.49171" lon="1.89548">
        <ele>258</ele>
        <time>2021-09-01T09:33:40Z</time>
      </trkpt>
      <trkpt lat="44.49175" lon="1.89555">
        <ele>258</ele>
        <time>2021-09-01T09:33:42Z</time>
      </trkpt>
      <trkpt lat="44.49176" lon="1.89564">
        <ele>258</ele>
        <time>2021-09-01T09:33:44Z</time>
      </trkpt>
      <trkpt lat="44.49173" lon="1.89569">
        <ele>259</ele>
        <time>2021-09-01T09:33:46Z</time>
      </trkpt>
      <trkpt lat="44.49099" lon="1.89637">
        <ele>263</ele>
        <time>2021-09-01T09:34:18Z</time>
      </trkpt>
      <trkpt lat="44.49051" lon="1.89711">
        <ele>267</ele>
        <time>2021-09-01T09:34:50Z</time>
      </trkpt>
      <trkpt lat="44.48995" lon="1.89757">
        <ele>269</ele>
        <time>2021-09-01T09:35:20Z</time>
      </trkpt>
      <trkpt lat="44.48943" lon="1.89822">
        <ele>271</ele>
        <time>2021-09-01T09:35:52Z</time>
      </trkpt>
      <trkpt lat="44.48933" lon="1.89849">
        <ele>273</ele>
        <time>2021-09-01T09:36:02Z</time>
      </trkpt>
      <trkpt lat="44.48927" lon="1.89866">
        <ele>274</ele>
        <time>2021-09-01T09:36:08Z</time>
      </trkpt>
      <trkpt lat="44.48921" lon="1.8988">
        <ele>274</ele>
        <time>2021-09-01T09:36:13Z</time>
      </trkpt>
      <trkpt lat="44.48912" lon="1.89909">
        <ele>277</ele>
        <time>2021-09-01T09:36:23Z</time>
      </trkpt>
      <trkpt lat="44.48908" lon="1.89923">
        <ele>278</ele>
        <time>2021-09-01T09:36:28Z</time>
      </trkpt>
      <trkpt lat="44.48902" lon="1.89941">
        <ele>280</ele>
        <time>2021-09-01T09:36:34Z</time>
      </trkpt>
      <trkpt lat="44.489" lon="1.89948">
        <ele>280</ele>
        <time>2021-09-01T09:36:36Z</time>
      </trkpt>
      <trkpt lat="44.48897" lon="1.89954">
        <ele>280</ele>
        <time>2021-09-01T09:36:38Z</time>
      </trkpt>
      <trkpt lat="44.48893" lon="1.89967">
        <ele>280</ele>
        <time>2021-09-01T09:36:42Z</time>
      </trkpt>
      <trkpt lat="44.4889" lon="1.8998">
        <ele>281</ele>
        <time>2021-09-01T09:36:46Z</time>
      </trkpt>
      <trkpt lat="44.48854" lon="1.90077">
        <ele>286</ele>
        <time>2021-09-01T09:37:14Z</time>
      </trkpt>
      <trkpt lat="44.48786" lon="1.90173">
        <ele>289</ele>
        <time>2021-09-01T09:37:44Z</time>
      </trkpt>
      <trkpt lat="44.48751" lon="1.90203">
        <ele>290</ele>
        <time>2021-09-01T09:37:56Z</time>
      </trkpt>
      <trkpt lat="44.48649" lon="1.90255">
        <ele>297</ele>
        <time>2021-09-01T09:38:28Z</time>
      </trkpt>
      <trkpt lat="44.48623" lon="1.90272">
        <ele>298</ele>
        <time>2021-09-01T09:38:36Z</time>
      </trkpt>
      <trkpt lat="44.48599" lon="1.90314">
        <ele>298</ele>
        <time>2021-09-01T09:38:45Z</time>
      </trkpt>
      <trkpt lat="44.48531" lon="1.90454">
        <ele>299</ele>
        <time>2021-09-01T09:39:15Z</time>
      </trkpt>
      <trkpt lat="44.48521" lon="1.90472">
        <ele>299</ele>
        <time>2021-09-01T09:39:21Z</time>
      </trkpt>
      <trkpt lat="44.48518" lon="1.90479">
        <ele>299</ele>
        <time>2021-09-01T09:39:23Z</time>
      </trkpt>
      <trkpt lat="44.4852" lon="1.90488">
        <ele>300</ele>
        <time>2021-09-01T09:39:25Z</time>
      </trkpt>
      <trkpt lat="44.48522" lon="1.90496">
        <ele>300</ele>
        <time>2021-09-01T09:39:27Z</time>
      </trkpt>
      <trkpt lat="44.4853" lon="1.9051">
        <ele>301</ele>
        <time>2021-09-01T09:39:31Z</time>
      </trkpt>
      <trkpt lat="44.48532" lon="1.90527">
        <ele>302</ele>
        <time>2021-09-01T09:39:35Z</time>
      </trkpt>
      <trkpt lat="44.48524" lon="1.90596">
        <ele>302</ele>
        <time>2021-09-01T09:39:49Z</time>
      </trkpt>
      <trkpt lat="44.48495" lon="1.90785">
        <ele>301</ele>
        <time>2021-09-01T09:40:21Z</time>
      </trkpt>
      <trkpt lat="44.48472" lon="1.90923">
        <ele>307</ele>
        <time>2021-09-01T09:40:51Z</time>
      </trkpt>
      <trkpt lat="44.48471" lon="1.90931">
        <ele>308</ele>
        <time>2021-09-01T09:40:53Z</time>
      </trkpt>
      <trkpt lat="44.48469" lon="1.90938">
        <ele>308</ele>
        <time>2021-09-01T09:40:55Z</time>
      </trkpt>
      <trkpt lat="44.48453" lon="1.91008">
        <ele>312</ele>
        <time>2021-09-01T09:41:13Z</time>
      </trkpt>
      <trkpt lat="44.4845" lon="1.91014">
        <ele>312</ele>
        <time>2021-09-01T09:41:15Z</time>
      </trkpt>
      <trkpt lat="44.48441" lon="1.91048">
        <ele>311</ele>
        <time>2021-09-01T09:41:26Z</time>
      </trkpt>
      <trkpt lat="44.48451" lon="1.90994">
        <ele>313</ele>
        <time>2021-09-01T09:41:44Z</time>
      </trkpt>
      <trkpt lat="44.48454" lon="1.90985">
        <ele>313</ele>
        <time>2021-09-01T09:41:46Z</time>
      </trkpt>
      <trkpt lat="44.48475" lon="1.90916">
        <ele>311</ele>
        <time>2021-09-01T09:42:09Z</time>
      </trkpt>
      <trkpt lat="44.48474" lon="1.90909">
        <ele>311</ele>
        <time>2021-09-01T09:46:57Z</time>
      </trkpt>
      <trkpt lat="44.48473" lon="1.90902">
        <ele>311</ele>
        <time>2021-09-01T09:47:06Z</time>
      </trkpt>
      <trkpt lat="44.48474" lon="1.90895">
        <ele>311</ele>
        <time>2021-09-01T09:47:08Z</time>
      </trkpt>
      <trkpt lat="44.48514" lon="1.90659">
        <ele>309</ele>
        <time>2021-09-01T09:47:38Z</time>
      </trkpt>
      <trkpt lat="44.48531" lon="1.90544">
        <ele>308</ele>
        <time>2021-09-01T09:47:57Z</time>
      </trkpt>
      <trkpt lat="44.48531" lon="1.90532">
        <ele>307</ele>
        <time>2021-09-01T09:47:59Z</time>
      </trkpt>
      <trkpt lat="44.4853" lon="1.90514">
        <ele>307</ele>
        <time>2021-09-01T09:48:02Z</time>
      </trkpt>
      <trkpt lat="44.48525" lon="1.90497">
        <ele>307</ele>
        <time>2021-09-01T09:48:06Z</time>
      </trkpt>
      <trkpt lat="44.48527" lon="1.90505">
        <ele>308</ele>
        <time>2021-09-01T09:49:04Z</time>
      </trkpt>
      <trkpt lat="44.48532" lon="1.90518">
        <ele>307</ele>
        <time>2021-09-01T09:49:08Z</time>
      </trkpt>
      <trkpt lat="44.48526" lon="1.90591">
        <ele>303</ele>
        <time>2021-09-01T09:49:24Z</time>
      </trkpt>
      <trkpt lat="44.485" lon="1.90759">
        <ele>304</ele>
        <time>2021-09-01T09:49:56Z</time>
      </trkpt>
      <trkpt lat="44.48478" lon="1.90892">
        <ele>308</ele>
        <time>2021-09-01T09:50:26Z</time>
      </trkpt>
      <trkpt lat="44.48452" lon="1.91005">
        <ele>311</ele>
        <time>2021-09-01T09:50:56Z</time>
      </trkpt>
      <trkpt lat="44.4839" lon="1.91257">
        <ele>302</ele>
        <time>2021-09-01T09:51:27Z</time>
      </trkpt>
      <trkpt lat="44.4838" lon="1.91311">
        <ele>301</ele>
        <time>2021-09-01T09:51:31Z</time>
      </trkpt>
      <trkpt lat="44.48369" lon="1.91504">
        <ele>302</ele>
        <time>2021-09-01T09:52:00Z</time>
      </trkpt>
      <trkpt lat="44.48375" lon="1.91532">
        <ele>302</ele>
        <time>2021-09-01T09:52:09Z</time>
      </trkpt>
      <trkpt lat="44.48396" lon="1.91634">
        <ele>305</ele>
        <time>2021-09-01T09:52:40Z</time>
      </trkpt>
      <trkpt lat="44.48425" lon="1.91731">
        <ele>307</ele>
        <time>2021-09-01T09:53:12Z</time>
      </trkpt>
      <trkpt lat="44.48447" lon="1.91802">
        <ele>307</ele>
        <time>2021-09-01T09:53:35Z</time>
      </trkpt>
      <trkpt lat="44.48493" lon="1.91896">
        <ele>309</ele>
        <time>2021-09-01T09:54:07Z</time>
      </trkpt>
      <trkpt lat="44.48502" lon="1.91913">
        <ele>310</ele>
        <time>2021-09-01T09:54:13Z</time>
      </trkpt>
      <trkpt lat="44.48506" lon="1.9192">
        <ele>310</ele>
        <time>2021-09-01T09:54:16Z</time>
      </trkpt>
      <trkpt lat="44.48529" lon="1.91961">
        <ele>311</ele>
        <time>2021-09-01T09:54:25Z</time>
      </trkpt>
      <trkpt lat="44.48533" lon="1.91965">
        <ele>311</ele>
        <time>2021-09-01T09:54:28Z</time>
      </trkpt>
      <trkpt lat="44.48537" lon="1.91967">
        <ele>312</ele>
        <time>2021-09-01T09:54:44Z</time>
      </trkpt>
      <trkpt lat="44.48541" lon="1.91971">
        <ele>312</ele>
        <time>2021-09-01T09:55:06Z</time>
      </trkpt>
      <trkpt lat="44.48544" lon="1.91978">
        <ele>313</ele>
        <time>2021-09-01T09:55:10Z</time>
      </trkpt>
      <trkpt lat="44.48541" lon="1.91985">
        <ele>313</ele>
        <time>2021-09-01T09:55:17Z</time>
      </trkpt>
      <trkpt lat="44.48544" lon="1.91991">
        <ele>313</ele>
        <time>2021-09-01T09:55:27Z</time>
      </trkpt>
      <trkpt lat="44.48552" lon="1.9201">
        <ele>313</ele>
        <time>2021-09-01T09:55:31Z</time>
      </trkpt>
      <trkpt lat="44.48574" lon="1.9206">
        <ele>310</ele>
        <time>2021-09-01T09:55:38Z</time>
      </trkpt>
      <trkpt lat="44.48607" lon="1.92178">
        <ele>304</ele>
        <time>2021-09-01T09:55:50Z</time>
      </trkpt>
      <trkpt lat="44.48608" lon="1.92205">
        <ele>303</ele>
        <time>2021-09-01T09:55:53Z</time>
      </trkpt>
      <trkpt lat="44.48606" lon="1.92214">
        <ele>302</ele>
        <time>2021-09-01T09:55:54Z</time>
      </trkpt>
      <trkpt lat="44.48593" lon="1.92244">
        <ele>299</ele>
        <time>2021-09-01T09:55:58Z</time>
      </trkpt>
      <trkpt lat="44.48592" lon="1.92263">
        <ele>298</ele>
        <time>2021-09-01T09:56:00Z</time>
      </trkpt>
      <trkpt lat="44.48595" lon="1.92284">
        <ele>298</ele>
        <time>2021-09-01T09:56:02Z</time>
      </trkpt>
      <trkpt lat="44.486" lon="1.92303">
        <ele>299</ele>
        <time>2021-09-01T09:56:04Z</time>
      </trkpt>
      <trkpt lat="44.48623" lon="1.92338">
        <ele>298</ele>
        <time>2021-09-01T09:56:09Z</time>
      </trkpt>
      <trkpt lat="44.4869" lon="1.92435">
        <ele>294</ele>
        <time>2021-09-01T09:56:27Z</time>
      </trkpt>
      <trkpt lat="44.48711" lon="1.92484">
        <ele>291</ele>
        <time>2021-09-01T09:56:36Z</time>
      </trkpt>
      <trkpt lat="44.48722" lon="1.92518">
        <ele>291</ele>
        <time>2021-09-01T09:56:41Z</time>
      </trkpt>
      <trkpt lat="44.48732" lon="1.92534">
        <ele>291</ele>
        <time>2021-09-01T09:56:44Z</time>
      </trkpt>
      <trkpt lat="44.4874" lon="1.92541">
        <ele>291</ele>
        <time>2021-09-01T09:56:46Z</time>
      </trkpt>
      <trkpt lat="44.48744" lon="1.92543">
        <ele>291</ele>
        <time>2021-09-01T09:56:47Z</time>
      </trkpt>
      <trkpt lat="44.48769" lon="1.92544">
        <ele>293</ele>
        <time>2021-09-01T09:56:56Z</time>
      </trkpt>
      <trkpt lat="44.48797" lon="1.92554">
        <ele>297</ele>
        <time>2021-09-01T09:57:06Z</time>
      </trkpt>
      <trkpt lat="44.48819" lon="1.92579">
        <ele>298</ele>
        <time>2021-09-01T09:57:16Z</time>
      </trkpt>
      <trkpt lat="44.48876" lon="1.92667">
        <ele>302</ele>
        <time>2021-09-01T09:57:46Z</time>
      </trkpt>
      <trkpt lat="44.48927" lon="1.92752">
        <ele>306</ele>
        <time>2021-09-01T09:58:12Z</time>
      </trkpt>
      <trkpt lat="44.48956" lon="1.92848">
        <ele>311</ele>
        <time>2021-09-01T09:58:43Z</time>
      </trkpt>
      <trkpt lat="44.48974" lon="1.92891">
        <ele>310</ele>
        <time>2021-09-01T09:58:55Z</time>
      </trkpt>
      <trkpt lat="44.48993" lon="1.92916">
        <ele>311</ele>
        <time>2021-09-01T09:59:03Z</time>
      </trkpt>
      <trkpt lat="44.49034" lon="1.9295">
        <ele>314</ele>
        <time>2021-09-01T09:59:20Z</time>
      </trkpt>
      <trkpt lat="44.49086" lon="1.93003">
        <ele>320</ele>
        <time>2021-09-01T09:59:51Z</time>
      </trkpt>
      <trkpt lat="44.49132" lon="1.93056">
        <ele>323</ele>
        <time>2021-09-01T10:00:21Z</time>
      </trkpt>
      <trkpt lat="44.49171" lon="1.93126">
        <ele>323</ele>
        <time>2021-09-01T10:00:48Z</time>
      </trkpt>
      <trkpt lat="44.49174" lon="1.93131">
        <ele>323</ele>
        <time>2021-09-01T10:00:50Z</time>
      </trkpt>
      <trkpt lat="44.49175" lon="1.93139">
        <ele>325</ele>
        <time>2021-09-01T10:00:56Z</time>
      </trkpt>
      <trkpt lat="44.4917" lon="1.93141">
        <ele>326</ele>
        <time>2021-09-01T10:01:25Z</time>
      </trkpt>
      <trkpt lat="44.49131" lon="1.93134">
        <ele>324</ele>
        <time>2021-09-01T10:01:39Z</time>
      </trkpt>
      <trkpt lat="44.49071" lon="1.93129">
        <ele>322</ele>
        <time>2021-09-01T10:01:57Z</time>
      </trkpt>
      <trkpt lat="44.49055" lon="1.93133">
        <ele>321</ele>
        <time>2021-09-01T10:02:01Z</time>
      </trkpt>
      <trkpt lat="44.49017" lon="1.93155">
        <ele>319</ele>
        <time>2021-09-01T10:02:11Z</time>
      </trkpt>
      <trkpt lat="44.48873" lon="1.93188">
        <ele>310</ele>
        <time>2021-09-01T10:02:42Z</time>
      </trkpt>
      <trkpt lat="44.48845" lon="1.93189">
        <ele>308</ele>
        <time>2021-09-01T10:02:46Z</time>
      </trkpt>
      <trkpt lat="44.4875" lon="1.93169">
        <ele>301</ele>
        <time>2021-09-01T10:02:57Z</time>
      </trkpt>
      <trkpt lat="44.48707" lon="1.93143">
        <ele>298</ele>
        <time>2021-09-01T10:03:02Z</time>
      </trkpt>
      <trkpt lat="44.48656" lon="1.93137">
        <ele>295</ele>
        <time>2021-09-01T10:03:07Z</time>
      </trkpt>
      <trkpt lat="44.48559" lon="1.9316">
        <ele>291</ele>
        <time>2021-09-01T10:03:18Z</time>
      </trkpt>
      <trkpt lat="44.48536" lon="1.93172">
        <ele>292</ele>
        <time>2021-09-01T10:03:21Z</time>
      </trkpt>
      <trkpt lat="44.48514" lon="1.93176">
        <ele>292</ele>
        <time>2021-09-01T10:03:24Z</time>
      </trkpt>
      <trkpt lat="44.48484" lon="1.93174">
        <ele>292</ele>
        <time>2021-09-01T10:03:28Z</time>
      </trkpt>
      <trkpt lat="44.48447" lon="1.93182">
        <ele>290</ele>
        <time>2021-09-01T10:03:33Z</time>
      </trkpt>
      <trkpt lat="44.48421" lon="1.93205">
        <ele>289</ele>
        <time>2021-09-01T10:03:38Z</time>
      </trkpt>
      <trkpt lat="44.48349" lon="1.9329">
        <ele>286</ele>
        <time>2021-09-01T10:03:56Z</time>
      </trkpt>
      <trkpt lat="44.48344" lon="1.93294">
        <ele>286</ele>
        <time>2021-09-01T10:03:57Z</time>
      </trkpt>
      <trkpt lat="44.48338" lon="1.93296">
        <ele>286</ele>
        <time>2021-09-01T10:03:58Z</time>
      </trkpt>
      <trkpt lat="44.48333" lon="1.93297">
        <ele>286</ele>
        <time>2021-09-01T10:03:59Z</time>
      </trkpt>
      <trkpt lat="44.48321" lon="1.93293">
        <ele>287</ele>
        <time>2021-09-01T10:04:01Z</time>
      </trkpt>
      <trkpt lat="44.48205" lon="1.93204">
        <ele>293</ele>
        <time>2021-09-01T10:04:32Z</time>
      </trkpt>
      <trkpt lat="44.48191" lon="1.93199">
        <ele>292</ele>
        <time>2021-09-01T10:04:38Z</time>
      </trkpt>
      <trkpt lat="44.48118" lon="1.93199">
        <ele>288</ele>
        <time>2021-09-01T10:05:08Z</time>
      </trkpt>
      <trkpt lat="44.48043" lon="1.93216">
        <ele>289</ele>
        <time>2021-09-01T10:05:38Z</time>
      </trkpt>
      <trkpt lat="44.47962" lon="1.93223">
        <ele>295</ele>
        <time>2021-09-01T10:06:08Z</time>
      </trkpt>
      <trkpt lat="44.47941" lon="1.93221">
        <ele>297</ele>
        <time>2021-09-01T10:06:17Z</time>
      </trkpt>
      <trkpt lat="44.47868" lon="1.93194">
        <ele>305</ele>
        <time>2021-09-01T10:06:47Z</time>
      </trkpt>
      <trkpt lat="44.47779" lon="1.93174">
        <ele>300</ele>
        <time>2021-09-01T10:07:09Z</time>
      </trkpt>
      <trkpt lat="44.47538" lon="1.9322">
        <ele>293</ele>
        <time>2021-09-01T10:07:40Z</time>
      </trkpt>
      <trkpt lat="44.47413" lon="1.93226">
        <ele>300</ele>
        <time>2021-09-01T10:08:11Z</time>
      </trkpt>
      <trkpt lat="44.47322" lon="1.93237">
        <ele>303</ele>
        <time>2021-09-01T10:08:41Z</time>
      </trkpt>
      <trkpt lat="44.47235" lon="1.93245">
        <ele>303</ele>
        <time>2021-09-01T10:09:13Z</time>
      </trkpt>
      <trkpt lat="44.47134" lon="1.93257">
        <ele>302</ele>
        <time>2021-09-01T10:09:45Z</time>
      </trkpt>
      <trkpt lat="44.47077" lon="1.93263">
        <ele>305</ele>
        <time>2021-09-01T10:10:01Z</time>
      </trkpt>
      <trkpt lat="44.47063" lon="1.93268">
        <ele>305</ele>
        <time>2021-09-01T10:10:05Z</time>
      </trkpt>
      <trkpt lat="44.4701" lon="1.93324">
        <ele>305</ele>
        <time>2021-09-01T10:10:23Z</time>
      </trkpt>
      <trkpt lat="44.46899" lon="1.93382">
        <ele>311</ele>
        <time>2021-09-01T10:10:53Z</time>
      </trkpt>
      <trkpt lat="44.4679" lon="1.93462">
        <ele>318</ele>
        <time>2021-09-01T10:11:25Z</time>
      </trkpt>
      <trkpt lat="44.46748" lon="1.93493">
        <ele>318</ele>
        <time>2021-09-01T10:11:39Z</time>
      </trkpt>
      <trkpt lat="44.46721" lon="1.93506">
        <ele>318</ele>
        <time>2021-09-01T10:11:47Z</time>
      </trkpt>
      <trkpt lat="44.46642" lon="1.93498">
        <ele>319</ele>
        <time>2021-09-01T10:12:09Z</time>
      </trkpt>
      <trkpt lat="44.46626" lon="1.93506">
        <ele>319</ele>
        <time>2021-09-01T10:12:15Z</time>
      </trkpt>
      <trkpt lat="44.46618" lon="1.9352">
        <ele>319</ele>
        <time>2021-09-01T10:12:19Z</time>
      </trkpt>
      <trkpt lat="44.46612" lon="1.93535">
        <ele>319</ele>
        <time>2021-09-01T10:12:23Z</time>
      </trkpt>
      <trkpt lat="44.4661" lon="1.93542">
        <ele>318</ele>
        <time>2021-09-01T10:12:25Z</time>
      </trkpt>
      <trkpt lat="44.46605" lon="1.93556">
        <ele>319</ele>
        <time>2021-09-01T10:13:04Z</time>
      </trkpt>
      <trkpt lat="44.46602" lon="1.93572">
        <ele>319</ele>
        <time>2021-09-01T10:13:08Z</time>
      </trkpt>
      <trkpt lat="44.46601" lon="1.93579">
        <ele>319</ele>
        <time>2021-09-01T10:13:10Z</time>
      </trkpt>
      <trkpt lat="44.46601" lon="1.93586">
        <ele>319</ele>
        <time>2021-09-01T10:13:12Z</time>
      </trkpt>
      <trkpt lat="44.46562" lon="1.93705">
        <ele>324</ele>
        <time>2021-09-01T10:13:44Z</time>
      </trkpt>
      <trkpt lat="44.46522" lon="1.9383">
        <ele>322</ele>
        <time>2021-09-01T10:14:16Z</time>
      </trkpt>
      <trkpt lat="44.46516" lon="1.93847">
        <ele>322</ele>
        <time>2021-09-01T10:14:20Z</time>
      </trkpt>
      <trkpt lat="44.46488" lon="1.93985">
        <ele>322</ele>
        <time>2021-09-01T10:14:50Z</time>
      </trkpt>
      <trkpt lat="44.46467" lon="1.94076">
        <ele>322</ele>
        <time>2021-09-01T10:15:11Z</time>
      </trkpt>
      <trkpt lat="44.46466" lon="1.94083">
        <ele>322</ele>
        <time>2021-09-01T10:15:14Z</time>
      </trkpt>
      <trkpt lat="44.46464" lon="1.94092">
        <ele>322</ele>
        <time>2021-09-01T10:15:58Z</time>
      </trkpt>
      <trkpt lat="44.46463" lon="1.941">
        <ele>322</ele>
        <time>2021-09-01T10:16:00Z</time>
      </trkpt>
      <trkpt lat="44.46461" lon="1.94111">
        <ele>322</ele>
        <time>2021-09-01T10:16:02Z</time>
      </trkpt>
      <trkpt lat="44.46458" lon="1.94175">
        <ele>321</ele>
        <time>2021-09-01T10:16:12Z</time>
      </trkpt>
      <trkpt lat="44.46437" lon="1.94242">
        <ele>315</ele>
        <time>2021-09-01T10:16:20Z</time>
      </trkpt>
      <trkpt lat="44.46361" lon="1.94411">
        <ele>307</ele>
        <time>2021-09-01T10:16:37Z</time>
      </trkpt>
      <trkpt lat="44.46353" lon="1.94445">
        <ele>308</ele>
        <time>2021-09-01T10:16:40Z</time>
      </trkpt>
      <trkpt lat="44.46372" lon="1.94678">
        <ele>313</ele>
        <time>2021-09-01T10:17:11Z</time>
      </trkpt>
      <trkpt lat="44.4637" lon="1.94916">
        <ele>315</ele>
        <time>2021-09-01T10:17:42Z</time>
      </trkpt>
      <trkpt lat="44.46369" lon="1.95086">
        <ele>322</ele>
        <time>2021-09-01T10:18:14Z</time>
      </trkpt>
      <trkpt lat="44.46364" lon="1.95126">
        <ele>322</ele>
        <time>2021-09-01T10:18:22Z</time>
      </trkpt>
      <trkpt lat="44.46353" lon="1.95184">
        <ele>320</ele>
        <time>2021-09-01T10:18:32Z</time>
      </trkpt>
      <trkpt lat="44.46348" lon="1.95272">
        <ele>319</ele>
        <time>2021-09-01T10:18:44Z</time>
      </trkpt>
      <trkpt lat="44.46352" lon="1.9531">
        <ele>320</ele>
        <time>2021-09-01T10:18:49Z</time>
      </trkpt>
      <trkpt lat="44.46395" lon="1.95536">
        <ele>321</ele>
        <time>2021-09-01T10:19:20Z</time>
      </trkpt>
      <trkpt lat="44.46427" lon="1.95705">
        <ele>319</ele>
        <time>2021-09-01T10:19:42Z</time>
      </trkpt>
      <trkpt lat="44.46472" lon="1.95881">
        <ele>320</ele>
        <time>2021-09-01T10:20:08Z</time>
      </trkpt>
      <trkpt lat="44.46475" lon="1.95899">
        <ele>320</ele>
        <time>2021-09-01T10:20:12Z</time>
      </trkpt>
      <trkpt lat="44.46474" lon="1.95917">
        <ele>320</ele>
        <time>2021-09-01T10:20:16Z</time>
      </trkpt>
      <trkpt lat="44.46469" lon="1.9593">
        <ele>318</ele>
        <time>2021-09-01T10:20:22Z</time>
      </trkpt>
      <trkpt lat="44.46472" lon="1.95936">
        <ele>318</ele>
        <time>2021-09-01T10:21:25Z</time>
      </trkpt>
      <trkpt lat="44.46472" lon="1.95942">
        <ele>319</ele>
        <time>2021-09-01T10:21:27Z</time>
      </trkpt>
      <trkpt lat="44.46471" lon="1.95949">
        <ele>320</ele>
        <time>2021-09-01T10:21:29Z</time>
      </trkpt>
      <trkpt lat="44.46466" lon="1.95963">
        <ele>320</ele>
        <time>2021-09-01T10:21:33Z</time>
      </trkpt>
      <trkpt lat="44.46462" lon="1.95999">
        <ele>320</ele>
        <time>2021-09-01T10:21:39Z</time>
      </trkpt>
      <trkpt lat="44.46494" lon="1.9621">
        <ele>312</ele>
        <time>2021-09-01T10:22:06Z</time>
      </trkpt>
      <trkpt lat="44.46482" lon="1.96282">
        <ele>313</ele>
        <time>2021-09-01T10:22:15Z</time>
      </trkpt>
      <trkpt lat="44.46429" lon="1.96496">
        <ele>312</ele>
        <time>2021-09-01T10:22:46Z</time>
      </trkpt>
      <trkpt lat="44.46393" lon="1.96641">
        <ele>310</ele>
        <time>2021-09-01T10:23:07Z</time>
      </trkpt>
      <trkpt lat="44.46392" lon="1.96706">
        <ele>307</ele>
        <time>2021-09-01T10:23:14Z</time>
      </trkpt>
      <trkpt lat="44.46394" lon="1.96785">
        <ele>304</ele>
        <time>2021-09-01T10:23:21Z</time>
      </trkpt>
      <trkpt lat="44.46392" lon="1.96809">
        <ele>303</ele>
        <time>2021-09-01T10:23:23Z</time>
      </trkpt>
      <trkpt lat="44.46389" lon="1.96821">
        <ele>303</ele>
        <time>2021-09-01T10:23:24Z</time>
      </trkpt>
      <trkpt lat="44.46375" lon="1.9685">
        <ele>301</ele>
        <time>2021-09-01T10:23:27Z</time>
      </trkpt>
      <trkpt lat="44.46363" lon="1.96864">
        <ele>300</ele>
        <time>2021-09-01T10:23:29Z</time>
      </trkpt>
      <trkpt lat="44.46344" lon="1.96894">
        <ele>298</ele>
        <time>2021-09-01T10:23:33Z</time>
      </trkpt>
      <trkpt lat="44.46336" lon="1.9692">
        <ele>298</ele>
        <time>2021-09-01T10:23:36Z</time>
      </trkpt>
      <trkpt lat="44.46322" lon="1.97022">
        <ele>299</ele>
        <time>2021-09-01T10:23:51Z</time>
      </trkpt>
      <trkpt lat="44.46316" lon="1.97084">
        <ele>300</ele>
        <time>2021-09-01T10:24:03Z</time>
      </trkpt>
      <trkpt lat="44.46309" lon="1.97116">
        <ele>301</ele>
        <time>2021-09-01T10:24:09Z</time>
      </trkpt>
      <trkpt lat="44.46306" lon="1.97126">
        <ele>301</ele>
        <time>2021-09-01T10:24:11Z</time>
      </trkpt>
      <trkpt lat="44.46275" lon="1.97179">
        <ele>302</ele>
        <time>2021-09-01T10:24:23Z</time>
      </trkpt>
      <trkpt lat="44.46265" lon="1.97209">
        <ele>302</ele>
        <time>2021-09-01T10:24:28Z</time>
      </trkpt>
      <trkpt lat="44.46237" lon="1.97426">
        <ele>307</ele>
        <time>2021-09-01T10:24:57Z</time>
      </trkpt>
      <trkpt lat="44.46225" lon="1.97462">
        <ele>307</ele>
        <time>2021-09-01T10:25:02Z</time>
      </trkpt>
      <trkpt lat="44.46112" lon="1.97682">
        <ele>300</ele>
        <time>2021-09-01T10:25:33Z</time>
      </trkpt>
      <trkpt lat="44.46102" lon="1.97712">
        <ele>300</ele>
        <time>2021-09-01T10:25:37Z</time>
      </trkpt>
      <trkpt lat="44.46094" lon="1.97837">
        <ele>302</ele>
        <time>2021-09-01T10:25:54Z</time>
      </trkpt>
      <trkpt lat="44.4609" lon="1.9785">
        <ele>301</ele>
        <time>2021-09-01T10:25:56Z</time>
      </trkpt>
      <trkpt lat="44.46078" lon="1.97866">
        <ele>302</ele>
        <time>2021-09-01T10:25:59Z</time>
      </trkpt>
      <trkpt lat="44.46035" lon="1.97908">
        <ele>302</ele>
        <time>2021-09-01T10:26:10Z</time>
      </trkpt>
      <trkpt lat="44.45995" lon="1.9798">
        <ele>299</ele>
        <time>2021-09-01T10:26:26Z</time>
      </trkpt>
      <trkpt lat="44.45981" lon="1.98005">
        <ele>297</ele>
        <time>2021-09-01T10:26:32Z</time>
      </trkpt>
      <trkpt lat="44.45971" lon="1.98021">
        <ele>296</ele>
        <time>2021-09-01T10:26:36Z</time>
      </trkpt>
      <trkpt lat="44.45965" lon="1.98028">
        <ele>295</ele>
        <time>2021-09-01T10:26:38Z</time>
      </trkpt>
      <trkpt lat="44.45952" lon="1.98034">
        <ele>296</ele>
        <time>2021-09-01T10:26:41Z</time>
      </trkpt>
      <trkpt lat="44.45887" lon="1.98038">
        <ele>304</ele>
        <time>2021-09-01T10:26:57Z</time>
      </trkpt>
      <trkpt lat="44.45861" lon="1.98047">
        <ele>304</ele>
        <time>2021-09-01T10:27:05Z</time>
      </trkpt>
      <trkpt lat="44.45773" lon="1.98124">
        <ele>300</ele>
        <time>2021-09-01T10:27:35Z</time>
      </trkpt>
      <trkpt lat="44.45746" lon="1.98149">
        <ele>302</ele>
        <time>2021-09-01T10:27:45Z</time>
      </trkpt>
      <trkpt lat="44.45722" lon="1.98163">
        <ele>304</ele>
        <time>2021-09-01T10:27:53Z</time>
      </trkpt>
      <trkpt lat="44.45689" lon="1.98174">
        <ele>307</ele>
        <time>2021-09-01T10:28:05Z</time>
      </trkpt>
      <trkpt lat="44.45684" lon="1.98175">
        <ele>307</ele>
        <time>2021-09-01T10:28:07Z</time>
      </trkpt>
      <trkpt lat="44.45643" lon="1.98195">
        <ele>309</ele>
        <time>2021-09-01T10:28:23Z</time>
      </trkpt>
      <trkpt lat="44.45578" lon="1.98236">
        <ele>305</ele>
        <time>2021-09-01T10:28:49Z</time>
      </trkpt>
      <trkpt lat="44.45569" lon="1.98245">
        <ele>305</ele>
        <time>2021-09-01T10:28:53Z</time>
      </trkpt>
      <trkpt lat="44.45556" lon="1.98266">
        <ele>305</ele>
        <time>2021-09-01T10:28:59Z</time>
      </trkpt>
      <trkpt lat="44.45547" lon="1.98295">
        <ele>306</ele>
        <time>2021-09-01T10:29:07Z</time>
      </trkpt>
      <trkpt lat="44.45545" lon="1.98313">
        <ele>307</ele>
        <time>2021-09-01T10:29:11Z</time>
      </trkpt>
      <trkpt lat="44.45542" lon="1.9838">
        <ele>307</ele>
        <time>2021-09-01T10:29:27Z</time>
      </trkpt>
      <trkpt lat="44.45531" lon="1.9842">
        <ele>310</ele>
        <time>2021-09-01T10:29:37Z</time>
      </trkpt>
      <trkpt lat="44.45501" lon="1.98477">
        <ele>316</ele>
        <time>2021-09-01T10:29:53Z</time>
      </trkpt>
      <trkpt lat="44.45484" lon="1.98536">
        <ele>322</ele>
        <time>2021-09-01T10:30:07Z</time>
      </trkpt>
      <trkpt lat="44.45483" lon="1.98544">
        <ele>323</ele>
        <time>2021-09-01T10:30:09Z</time>
      </trkpt>
      <trkpt lat="44.45476" lon="1.98598">
        <ele>325</ele>
        <time>2021-09-01T10:30:21Z</time>
      </trkpt>
      <trkpt lat="44.45476" lon="1.98651">
        <ele>332</ele>
        <time>2021-09-01T10:30:33Z</time>
      </trkpt>
      <trkpt lat="44.45488" lon="1.98718">
        <ele>335</ele>
        <time>2021-09-01T10:30:49Z</time>
      </trkpt>
      <trkpt lat="44.4549" lon="1.98726">
        <ele>334</ele>
        <time>2021-09-01T10:30:51Z</time>
      </trkpt>
      <trkpt lat="44.45508" lon="1.98854">
        <ele>333</ele>
        <time>2021-09-01T10:31:21Z</time>
      </trkpt>
      <trkpt lat="44.45517" lon="1.98901">
        <ele>336</ele>
        <time>2021-09-01T10:31:33Z</time>
      </trkpt>
      <trkpt lat="44.45519" lon="1.9892">
        <ele>335</ele>
        <time>2021-09-01T10:31:37Z</time>
      </trkpt>
      <trkpt lat="44.45516" lon="1.9894">
        <ele>335</ele>
        <time>2021-09-01T10:31:41Z</time>
      </trkpt>
      <trkpt lat="44.4551" lon="1.98957">
        <ele>336</ele>
        <time>2021-09-01T10:31:45Z</time>
      </trkpt>
      <trkpt lat="44.45495" lon="1.98977">
        <ele>336</ele>
        <time>2021-09-01T10:31:51Z</time>
      </trkpt>
      <trkpt lat="44.45468" lon="1.98997">
        <ele>337</ele>
        <time>2021-09-01T10:31:59Z</time>
      </trkpt>
      <trkpt lat="44.45386" lon="1.99021">
        <ele>339</ele>
        <time>2021-09-01T10:32:21Z</time>
      </trkpt>
      <trkpt lat="44.45355" lon="1.9902">
        <ele>341</ele>
        <time>2021-09-01T10:32:29Z</time>
      </trkpt>
      <trkpt lat="44.45348" lon="1.99017">
        <ele>341</ele>
        <time>2021-09-01T10:32:31Z</time>
      </trkpt>
      <trkpt lat="44.45306" lon="1.99016">
        <ele>343</ele>
        <time>2021-09-01T10:32:43Z</time>
      </trkpt>
      <trkpt lat="44.452" lon="1.99055">
        <ele>343</ele>
        <time>2021-09-01T10:33:13Z</time>
      </trkpt>
      <trkpt lat="44.45168" lon="1.99061">
        <ele>339</ele>
        <time>2021-09-01T10:33:23Z</time>
      </trkpt>
      <trkpt lat="44.45116" lon="1.99066">
        <ele>337</ele>
        <time>2021-09-01T10:33:39Z</time>
      </trkpt>
      <trkpt lat="44.45063" lon="1.99093">
        <ele>336</ele>
        <time>2021-09-01T10:33:55Z</time>
      </trkpt>
      <trkpt lat="44.44994" lon="1.99117">
        <ele>338</ele>
        <time>2021-09-01T10:34:10Z</time>
      </trkpt>
      <trkpt lat="44.4497" lon="1.99132">
        <ele>340</ele>
        <time>2021-09-01T10:34:15Z</time>
      </trkpt>
      <trkpt lat="44.44876" lon="1.99226">
        <ele>343</ele>
        <time>2021-09-01T10:34:38Z</time>
      </trkpt>
      <trkpt lat="44.44766" lon="1.99361">
        <ele>343</ele>
        <time>2021-09-01T10:35:08Z</time>
      </trkpt>
      <trkpt lat="44.44664" lon="1.99489">
        <ele>346</ele>
        <time>2021-09-01T10:35:34Z</time>
      </trkpt>
      <trkpt lat="44.44645" lon="1.99545">
        <ele>346</ele>
        <time>2021-09-01T10:35:43Z</time>
      </trkpt>
      <trkpt lat="44.44632" lon="1.99653">
        <ele>347</ele>
        <time>2021-09-01T10:36:00Z</time>
      </trkpt>
      <trkpt lat="44.44611" lon="1.99816">
        <ele>353</ele>
        <time>2021-09-01T10:36:31Z</time>
      </trkpt>
      <trkpt lat="44.44595" lon="1.99989">
        <ele>354</ele>
        <time>2021-09-01T10:37:03Z</time>
      </trkpt>
      <trkpt lat="44.44586" lon="2.00086">
        <ele>350</ele>
        <time>2021-09-01T10:37:19Z</time>
      </trkpt>
      <trkpt lat="44.44589" lon="2.00122">
        <ele>348</ele>
        <time>2021-09-01T10:37:25Z</time>
      </trkpt>
      <trkpt lat="44.44601" lon="2.00168">
        <ele>347</ele>
        <time>2021-09-01T10:37:33Z</time>
      </trkpt>
      <trkpt lat="44.44603" lon="2.00174">
        <ele>347</ele>
        <time>2021-09-01T10:37:34Z</time>
      </trkpt>
      <trkpt lat="44.44606" lon="2.00181">
        <ele>347</ele>
        <time>2021-09-01T10:37:36Z</time>
      </trkpt>
      <trkpt lat="44.446" lon="2.00194">
        <ele>346</ele>
        <time>2021-09-01T10:37:40Z</time>
      </trkpt>
      <trkpt lat="44.446" lon="2.00205">
        <ele>345</ele>
        <time>2021-09-01T10:37:43Z</time>
      </trkpt>
      <trkpt lat="44.44597" lon="2.002">
        <ele>349</ele>
        <time>2021-09-01T10:38:36Z</time>
      </trkpt>
      <trkpt lat="44.44586" lon="2.00197">
        <ele>352</ele>
        <time>2021-09-01T10:38:40Z</time>
      </trkpt>
      <trkpt lat="44.44578" lon="2.00195">
        <ele>352</ele>
        <time>2021-09-01T10:38:42Z</time>
      </trkpt>
      <trkpt lat="44.44461" lon="2.00132">
        <ele>365</ele>
        <time>2021-09-01T10:39:14Z</time>
      </trkpt>
      <trkpt lat="44.44209" lon="1.99977">
        <ele>371</ele>
        <time>2021-09-01T10:39:33Z</time>
      </trkpt>
      <trkpt lat="44.44144" lon="1.99934">
        <ele>371</ele>
        <time>2021-09-01T10:39:37Z</time>
      </trkpt>
      <trkpt lat="44.44058" lon="1.99766">
        <ele>371</ele>
        <time>2021-09-01T10:39:44Z</time>
      </trkpt>
      <trkpt lat="44.43988" lon="1.99638">
        <ele>370</ele>
        <time>2021-09-01T10:41:21Z</time>
      </trkpt>
      <trkpt lat="44.43982" lon="1.99466">
        <ele>408</ele>
        <time>2021-09-01T10:51:56Z</time>
      </trkpt>
      <trkpt lat="44.43896" lon="1.99329">
        <ele>388</ele>
        <time>2021-09-01T10:52:03Z</time>
      </trkpt>
      <trkpt lat="44.43639" lon="1.992">
        <ele>362</ele>
        <time>2021-09-01T10:52:04Z</time>
      </trkpt>
      <trkpt lat="44.43556" lon="1.99208">
        <ele>368</ele>
        <time>2021-09-01T10:52:06Z</time>
      </trkpt>
      <trkpt lat="44.43498" lon="1.99277">
        <ele>395</ele>
        <time>2021-09-01T10:52:07Z</time>
      </trkpt>
      <trkpt lat="44.43397" lon="1.99144">
        <ele>391</ele>
        <time>2021-09-01T10:52:10Z</time>
      </trkpt>
      <trkpt lat="44.43145" lon="1.99024">
        <ele>385</ele>
        <time>2021-09-01T10:52:20Z</time>
      </trkpt>
      <trkpt lat="44.43041" lon="1.9902">
        <ele>394</ele>
        <time>2021-09-01T10:52:29Z</time>
      </trkpt>
      <trkpt lat="44.42974" lon="1.98938">
        <ele>286</ele>
        <time>2021-09-01T10:52:34Z</time>
      </trkpt>
      <trkpt lat="44.42912" lon="1.98882">
        <ele>227</ele>
        <time>2021-09-01T10:52:38Z</time>
      </trkpt>
      <trkpt lat="44.42857" lon="1.98835">
        <ele>210</ele>
        <time>2021-09-01T10:52:41Z</time>
      </trkpt>
      <trkpt lat="44.42774" lon="1.98784">
        <ele>345</ele>
        <time>2021-09-01T10:52:56Z</time>
      </trkpt>
      <trkpt lat="44.42751" lon="1.98787">
        <ele>355</ele>
        <time>2021-09-01T10:53:00Z</time>
      </trkpt>
      <trkpt lat="44.42746" lon="1.98789">
        <ele>356</ele>
        <time>2021-09-01T10:53:01Z</time>
      </trkpt>
      <trkpt lat="44.42722" lon="1.98794">
        <ele>363</ele>
        <time>2021-09-01T10:53:05Z</time>
      </trkpt>
      <trkpt lat="44.42634" lon="1.98771">
        <ele>373</ele>
        <time>2021-09-01T10:53:22Z</time>
      </trkpt>
      <trkpt lat="44.42517" lon="1.98684">
        <ele>380</ele>
        <time>2021-09-01T10:53:51Z</time>
      </trkpt>
      <trkpt lat="44.42511" lon="1.98677">
        <ele>382</ele>
        <time>2021-09-01T10:53:53Z</time>
      </trkpt>
      <trkpt lat="44.42465" lon="1.98649">
        <ele>381</ele>
        <time>2021-09-01T10:54:05Z</time>
      </trkpt>
      <trkpt lat="44.42295" lon="1.98498">
        <ele>406</ele>
        <time>2021-09-01T10:54:37Z</time>
      </trkpt>
      <trkpt lat="44.42261" lon="1.9849">
        <ele>404</ele>
        <time>2021-09-01T10:54:49Z</time>
      </trkpt>
      <trkpt lat="44.42225" lon="1.98499">
        <ele>398</ele>
        <time>2021-09-01T10:55:01Z</time>
      </trkpt>
      <trkpt lat="44.42178" lon="1.9851">
        <ele>394</ele>
        <time>2021-09-01T10:55:15Z</time>
      </trkpt>
      <trkpt lat="44.42159" lon="1.98509">
        <ele>392</ele>
        <time>2021-09-01T10:55:19Z</time>
      </trkpt>
      <trkpt lat="44.42149" lon="1.98503">
        <ele>390</ele>
        <time>2021-09-01T10:55:21Z</time>
      </trkpt>
      <trkpt lat="44.4213" lon="1.98478">
        <ele>390</ele>
        <time>2021-09-01T10:55:26Z</time>
      </trkpt>
      <trkpt lat="44.42107" lon="1.98421">
        <ele>387</ele>
        <time>2021-09-01T10:55:36Z</time>
      </trkpt>
      <trkpt lat="44.42066" lon="1.9832">
        <ele>387</ele>
        <time>2021-09-01T10:55:49Z</time>
      </trkpt>
      <trkpt lat="44.42026" lon="1.9824">
        <ele>385</ele>
        <time>2021-09-01T10:55:59Z</time>
      </trkpt>
      <trkpt lat="44.41983" lon="1.98184">
        <ele>384</ele>
        <time>2021-09-01T10:56:12Z</time>
      </trkpt>
      <trkpt lat="44.41952" lon="1.98126">
        <ele>401</ele>
        <time>2021-09-01T10:56:14Z</time>
      </trkpt>
      <trkpt lat="44.41967" lon="1.98155">
        <ele>392</ele>
        <time>2021-09-01T10:56:15Z</time>
      </trkpt>
      <trkpt lat="44.41924" lon="1.98126">
        <ele>394</ele>
        <time>2021-09-01T10:56:28Z</time>
      </trkpt>
      <trkpt lat="44.4192" lon="1.98118">
        <ele>394</ele>
        <time>2021-09-01T10:56:30Z</time>
      </trkpt>
      <trkpt lat="44.41881" lon="1.98018">
        <ele>399</ele>
        <time>2021-09-01T10:56:52Z</time>
      </trkpt>
      <trkpt lat="44.41877" lon="1.97996">
        <ele>398</ele>
        <time>2021-09-01T10:56:56Z</time>
      </trkpt>
      <trkpt lat="44.41873" lon="1.98006">
        <ele>402</ele>
        <time>2021-09-01T10:56:58Z</time>
      </trkpt>
      <trkpt lat="44.41871" lon="1.97976">
        <ele>402</ele>
        <time>2021-09-01T10:57:02Z</time>
      </trkpt>
      <trkpt lat="44.41866" lon="1.97993">
        <ele>406</ele>
        <time>2021-09-01T10:57:03Z</time>
      </trkpt>
      <trkpt lat="44.41865" lon="1.97953">
        <ele>405</ele>
        <time>2021-09-01T10:57:07Z</time>
      </trkpt>
      <trkpt lat="44.41862" lon="1.97933">
        <ele>404</ele>
        <time>2021-09-01T10:57:09Z</time>
      </trkpt>
      <trkpt lat="44.41825" lon="1.97849">
        <ele>399</ele>
        <time>2021-09-01T10:57:19Z</time>
      </trkpt>
      <trkpt lat="44.41791" lon="1.97985">
        <ele>413</ele>
        <time>2021-09-01T10:57:25Z</time>
      </trkpt>
      <trkpt lat="44.41791" lon="1.98131">
        <ele>401</ele>
        <time>2021-09-01T10:57:28Z</time>
      </trkpt>
      <trkpt lat="44.41729" lon="1.98239">
        <ele>371</ele>
        <time>2021-09-01T11:00:23Z</time>
      </trkpt>
      <trkpt lat="44.41672" lon="1.98467">
        <ele>389</ele>
        <time>2021-09-01T11:00:57Z</time>
      </trkpt>
      <trkpt lat="44.41714" lon="1.98508">
        <ele>331</ele>
        <time>2021-09-01T11:01:24Z</time>
      </trkpt>
      <trkpt lat="44.41728" lon="1.98557">
        <ele>368</ele>
        <time>2021-09-01T11:01:34Z</time>
      </trkpt>
      <trkpt lat="44.41733" lon="1.98559">
        <ele>371</ele>
        <time>2021-09-01T11:01:35Z</time>
      </trkpt>
      <trkpt lat="44.41748" lon="1.98636">
        <ele>372</ele>
        <time>2021-09-01T11:01:51Z</time>
      </trkpt>
      <trkpt lat="44.41744" lon="1.98845">
        <ele>330</ele>
        <time>2021-09-01T11:02:03Z</time>
      </trkpt>
      <trkpt lat="44.41748" lon="1.98795">
        <ele>359</ele>
        <time>2021-09-01T11:02:24Z</time>
      </trkpt>
      <trkpt lat="44.41741" lon="1.98847">
        <ele>360</ele>
        <time>2021-09-01T11:02:36Z</time>
      </trkpt>
      <trkpt lat="44.41713" lon="1.98939">
        <ele>375</ele>
        <time>2021-09-01T11:02:57Z</time>
      </trkpt>
      <trkpt lat="44.41708" lon="1.98945">
        <ele>377</ele>
        <time>2021-09-01T11:02:58Z</time>
      </trkpt>
      <trkpt lat="44.41708" lon="1.98953">
        <ele>379</ele>
        <time>2021-09-01T11:03:00Z</time>
      </trkpt>
      <trkpt lat="44.41702" lon="1.98997">
        <ele>374</ele>
        <time>2021-09-01T11:03:08Z</time>
      </trkpt>
      <trkpt lat="44.41697" lon="1.99011">
        <ele>376</ele>
        <time>2021-09-01T11:03:11Z</time>
      </trkpt>
      <trkpt lat="44.41693" lon="1.99065">
        <ele>385</ele>
        <time>2021-09-01T11:03:21Z</time>
      </trkpt>
      <trkpt lat="44.41699" lon="1.99069">
        <ele>384</ele>
        <time>2021-09-01T11:03:23Z</time>
      </trkpt>
      <trkpt lat="44.41714" lon="1.99106">
        <ele>382</ele>
        <time>2021-09-01T11:03:32Z</time>
      </trkpt>
      <trkpt lat="44.41719" lon="1.99109">
        <ele>382</ele>
        <time>2021-09-01T11:03:35Z</time>
      </trkpt>
      <trkpt lat="44.41737" lon="1.99136">
        <ele>394</ele>
        <time>2021-09-01T11:03:45Z</time>
      </trkpt>
      <trkpt lat="44.41751" lon="1.99141">
        <ele>384</ele>
        <time>2021-09-01T11:03:48Z</time>
      </trkpt>
      <trkpt lat="44.41773" lon="1.9918">
        <ele>395</ele>
        <time>2021-09-01T11:04:01Z</time>
      </trkpt>
      <trkpt lat="44.41782" lon="1.99184">
        <ele>393</ele>
        <time>2021-09-01T11:04:03Z</time>
      </trkpt>
      <trkpt lat="44.41847" lon="1.99261">
        <ele>383</ele>
        <time>2021-09-01T11:04:33Z</time>
      </trkpt>
      <trkpt lat="44.41856" lon="1.99285">
        <ele>384</ele>
        <time>2021-09-01T11:04:41Z</time>
      </trkpt>
      <trkpt lat="44.41861" lon="1.993">
        <ele>385</ele>
        <time>2021-09-01T11:04:46Z</time>
      </trkpt>
      <trkpt lat="44.41903" lon="1.99381">
        <ele>395</ele>
        <time>2021-09-01T11:05:17Z</time>
      </trkpt>
      <trkpt lat="44.41906" lon="1.99387">
        <ele>395</ele>
        <time>2021-09-01T11:05:19Z</time>
      </trkpt>
      <trkpt lat="44.41917" lon="1.99414">
        <ele>394</ele>
        <time>2021-09-01T11:05:28Z</time>
      </trkpt>
      <trkpt lat="44.41933" lon="1.99452">
        <ele>393</ele>
        <time>2021-09-01T11:05:41Z</time>
      </trkpt>
      <trkpt lat="44.41937" lon="1.99479">
        <ele>393</ele>
        <time>2021-09-01T11:05:49Z</time>
      </trkpt>
      <trkpt lat="44.41934" lon="1.99525">
        <ele>393</ele>
        <time>2021-09-01T11:06:04Z</time>
      </trkpt>
      <trkpt lat="44.41931" lon="1.99551">
        <ele>393</ele>
        <time>2021-09-01T11:06:12Z</time>
      </trkpt>
      <trkpt lat="44.41933" lon="1.99588">
        <ele>391</ele>
        <time>2021-09-01T11:06:23Z</time>
      </trkpt>
      <trkpt lat="44.41957" lon="1.99698">
        <ele>392</ele>
        <time>2021-09-01T11:06:53Z</time>
      </trkpt>
      <trkpt lat="44.41962" lon="1.99719">
        <ele>394</ele>
        <time>2021-09-01T11:06:59Z</time>
      </trkpt>
      <trkpt lat="44.41964" lon="1.99726">
        <ele>394</ele>
        <time>2021-09-01T11:07:01Z</time>
      </trkpt>
      <trkpt lat="44.41974" lon="1.99743">
        <ele>394</ele>
        <time>2021-09-01T11:07:07Z</time>
      </trkpt>
      <trkpt lat="44.42001" lon="1.99774">
        <ele>393</ele>
        <time>2021-09-01T11:07:19Z</time>
      </trkpt>
      <trkpt lat="44.42011" lon="1.99786">
        <ele>393</ele>
        <time>2021-09-01T11:07:23Z</time>
      </trkpt>
      <trkpt lat="44.42018" lon="1.9981">
        <ele>393</ele>
        <time>2021-09-01T11:07:29Z</time>
      </trkpt>
      <trkpt lat="44.42015" lon="1.9984">
        <ele>394</ele>
        <time>2021-09-01T11:07:37Z</time>
      </trkpt>
      <trkpt lat="44.42009" lon="1.99874">
        <ele>394</ele>
        <time>2021-09-01T11:07:47Z</time>
      </trkpt>
      <trkpt lat="44.41993" lon="1.99917">
        <ele>395</ele>
        <time>2021-09-01T11:07:59Z</time>
      </trkpt>
      <trkpt lat="44.41921" lon="2.00036">
        <ele>404</ele>
        <time>2021-09-01T11:08:31Z</time>
      </trkpt>
      <trkpt lat="44.41912" lon="2.00053">
        <ele>405</ele>
        <time>2021-09-01T11:08:35Z</time>
      </trkpt>
      <trkpt lat="44.41909" lon="2.00071">
        <ele>405</ele>
        <time>2021-09-01T11:08:39Z</time>
      </trkpt>
      <trkpt lat="44.4191" lon="2.00082">
        <ele>405</ele>
        <time>2021-09-01T11:08:41Z</time>
      </trkpt>
      <trkpt lat="44.41919" lon="2.0011">
        <ele>405</ele>
        <time>2021-09-01T11:08:46Z</time>
      </trkpt>
      <trkpt lat="44.41997" lon="2.00236">
        <ele>406</ele>
        <time>2021-09-01T11:09:18Z</time>
      </trkpt>
      <trkpt lat="44.42062" lon="2.00329">
        <ele>408</ele>
        <time>2021-09-01T11:09:44Z</time>
      </trkpt>
      <trkpt lat="44.42086" lon="2.00358">
        <ele>409</ele>
        <time>2021-09-01T11:09:54Z</time>
      </trkpt>
      <trkpt lat="44.42101" lon="2.0039">
        <ele>410</ele>
        <time>2021-09-01T11:10:02Z</time>
      </trkpt>
      <trkpt lat="44.42114" lon="2.0045">
        <ele>413</ele>
        <time>2021-09-01T11:10:16Z</time>
      </trkpt>
      <trkpt lat="44.42114" lon="2.00457">
        <ele>413</ele>
        <time>2021-09-01T11:10:18Z</time>
      </trkpt>
      <trkpt lat="44.42112" lon="2.00465">
        <ele>411</ele>
        <time>2021-09-01T11:12:01Z</time>
      </trkpt>
      <trkpt lat="44.42111" lon="2.00472">
        <ele>411</ele>
        <time>2021-09-01T11:12:04Z</time>
      </trkpt>
      <trkpt lat="44.42102" lon="2.00494">
        <ele>414</ele>
        <time>2021-09-01T11:12:11Z</time>
      </trkpt>
      <trkpt lat="44.42095" lon="2.00508">
        <ele>414</ele>
        <time>2021-09-01T11:12:15Z</time>
      </trkpt>
      <trkpt lat="44.42091" lon="2.00526">
        <ele>412</ele>
        <time>2021-09-01T11:12:19Z</time>
      </trkpt>
      <trkpt lat="44.42083" lon="2.00558">
        <ele>407</ele>
        <time>2021-09-01T11:12:25Z</time>
      </trkpt>
      <trkpt lat="44.41971" lon="2.00706">
        <ele>397</ele>
        <time>2021-09-01T11:12:55Z</time>
      </trkpt>
      <trkpt lat="44.41959" lon="2.00728">
        <ele>397</ele>
        <time>2021-09-01T11:12:59Z</time>
      </trkpt>
      <trkpt lat="44.41952" lon="2.00746">
        <ele>397</ele>
        <time>2021-09-01T11:13:03Z</time>
      </trkpt>
      <trkpt lat="44.41948" lon="2.00767">
        <ele>395</ele>
        <time>2021-09-01T11:13:07Z</time>
      </trkpt>
      <trkpt lat="44.41945" lon="2.00777">
        <ele>395</ele>
        <time>2021-09-01T11:13:09Z</time>
      </trkpt>
      <trkpt lat="44.41941" lon="2.00785">
        <ele>394</ele>
        <time>2021-09-01T11:13:11Z</time>
      </trkpt>
      <trkpt lat="44.4193" lon="2.00793">
        <ele>395</ele>
        <time>2021-09-01T11:13:15Z</time>
      </trkpt>
      <trkpt lat="44.41925" lon="2.00799">
        <ele>394</ele>
        <time>2021-09-01T11:13:17Z</time>
      </trkpt>
      <trkpt lat="44.41918" lon="2.00819">
        <ele>391</ele>
        <time>2021-09-01T11:13:24Z</time>
      </trkpt>
      <trkpt lat="44.41916" lon="2.00825">
        <ele>390</ele>
        <time>2021-09-01T11:13:27Z</time>
      </trkpt>
      <trkpt lat="44.41909" lon="2.0083">
        <ele>389</ele>
        <time>2021-09-01T11:13:30Z</time>
      </trkpt>
      <trkpt lat="44.41902" lon="2.00833">
        <ele>391</ele>
        <time>2021-09-01T11:13:32Z</time>
      </trkpt>
      <trkpt lat="44.41897" lon="2.00831">
        <ele>392</ele>
        <time>2021-09-01T11:13:34Z</time>
      </trkpt>
      <trkpt lat="44.41885" lon="2.00827">
        <ele>394</ele>
        <time>2021-09-01T11:13:39Z</time>
      </trkpt>
      <trkpt lat="44.41881" lon="2.00824">
        <ele>395</ele>
        <time>2021-09-01T11:13:41Z</time>
      </trkpt>
      <trkpt lat="44.41856" lon="2.00809">
        <ele>396</ele>
        <time>2021-09-01T11:13:51Z</time>
      </trkpt>
      <trkpt lat="44.41851" lon="2.00806">
        <ele>397</ele>
        <time>2021-09-01T11:13:53Z</time>
      </trkpt>
      <trkpt lat="44.41798" lon="2.00782">
        <ele>394</ele>
        <time>2021-09-01T11:14:06Z</time>
      </trkpt>
      <trkpt lat="44.41769" lon="2.0076">
        <ele>391</ele>
        <time>2021-09-01T11:14:11Z</time>
      </trkpt>
      <trkpt lat="44.41732" lon="2.00724">
        <ele>387</ele>
        <time>2021-09-01T11:14:17Z</time>
      </trkpt>
      <trkpt lat="44.41708" lon="2.00713">
        <ele>385</ele>
        <time>2021-09-01T11:14:20Z</time>
      </trkpt>
      <trkpt lat="44.41638" lon="2.00694">
        <ele>383</ele>
        <time>2021-09-01T11:14:28Z</time>
      </trkpt>
      <trkpt lat="44.41499" lon="2.00625">
        <ele>383</ele>
        <time>2021-09-01T11:14:48Z</time>
      </trkpt>
      <trkpt lat="44.41402" lon="2.00537">
        <ele>386</ele>
        <time>2021-09-01T11:15:19Z</time>
      </trkpt>
      <trkpt lat="44.4138" lon="2.00512">
        <ele>389</ele>
        <time>2021-09-01T11:15:31Z</time>
      </trkpt>
      <trkpt lat="44.41374" lon="2.00501">
        <ele>389</ele>
        <time>2021-09-01T11:15:38Z</time>
      </trkpt>
      <trkpt lat="44.41368" lon="2.00488">
        <ele>390</ele>
        <time>2021-09-01T11:15:43Z</time>
      </trkpt>
      <trkpt lat="44.4135" lon="2.00451">
        <ele>390</ele>
        <time>2021-09-01T11:15:55Z</time>
      </trkpt>
      <trkpt lat="44.41341" lon="2.00425">
        <ele>392</ele>
        <time>2021-09-01T11:16:01Z</time>
      </trkpt>
      <trkpt lat="44.41332" lon="2.00383">
        <ele>394</ele>
        <time>2021-09-01T11:16:09Z</time>
      </trkpt>
      <trkpt lat="44.41325" lon="2.0036">
        <ele>395</ele>
        <time>2021-09-01T11:16:13Z</time>
      </trkpt>
      <trkpt lat="44.41276" lon="2.00286">
        <ele>401</ele>
        <time>2021-09-01T11:16:33Z</time>
      </trkpt>
      <trkpt lat="44.41272" lon="2.0028">
        <ele>402</ele>
        <time>2021-09-01T11:16:35Z</time>
      </trkpt>
      <trkpt lat="44.41264" lon="2.00267">
        <ele>402</ele>
        <time>2021-09-01T11:16:39Z</time>
      </trkpt>
      <trkpt lat="44.41211" lon="2.00187">
        <ele>402</ele>
        <time>2021-09-01T11:17:09Z</time>
      </trkpt>
      <trkpt lat="44.41186" lon="2.00145">
        <ele>402</ele>
        <time>2021-09-01T11:17:23Z</time>
      </trkpt>
      <trkpt lat="44.41183" lon="2.00139">
        <ele>402</ele>
        <time>2021-09-01T11:17:25Z</time>
      </trkpt>
      <trkpt lat="44.41178" lon="2.00125">
        <ele>401</ele>
        <time>2021-09-01T11:17:30Z</time>
      </trkpt>
      <trkpt lat="44.41139" lon="1.99967">
        <ele>402</ele>
        <time>2021-09-01T11:18:01Z</time>
      </trkpt>
      <trkpt lat="44.41122" lon="1.99926">
        <ele>404</ele>
        <time>2021-09-01T11:18:10Z</time>
      </trkpt>
      <trkpt lat="44.41068" lon="1.9987">
        <ele>407</ele>
        <time>2021-09-01T11:18:38Z</time>
      </trkpt>
      <trkpt lat="44.41009" lon="1.99819">
        <ele>410</ele>
        <time>2021-09-01T11:19:09Z</time>
      </trkpt>
      <trkpt lat="44.41" lon="1.99806">
        <ele>411</ele>
        <time>2021-09-01T11:19:15Z</time>
      </trkpt>
      <trkpt lat="44.40993" lon="1.99794">
        <ele>412</ele>
        <time>2021-09-01T11:19:20Z</time>
      </trkpt>
      <trkpt lat="44.40984" lon="1.99769">
        <ele>413</ele>
        <time>2021-09-01T11:19:51Z</time>
      </trkpt>
      <trkpt lat="44.40982" lon="1.99761">
        <ele>414</ele>
        <time>2021-09-01T11:19:53Z</time>
      </trkpt>
      <trkpt lat="44.4098" lon="1.99754">
        <ele>414</ele>
        <time>2021-09-01T11:19:55Z</time>
      </trkpt>
      <trkpt lat="44.4096" lon="1.99702">
        <ele>413</ele>
        <time>2021-09-01T11:20:09Z</time>
      </trkpt>
      <trkpt lat="44.40954" lon="1.99692">
        <ele>412</ele>
        <time>2021-09-01T11:20:13Z</time>
      </trkpt>
      <trkpt lat="44.40918" lon="1.99623">
        <ele>417</ele>
        <time>2021-09-01T11:20:34Z</time>
      </trkpt>
      <trkpt lat="44.40916" lon="1.99615">
        <ele>418</ele>
        <time>2021-09-01T11:21:11Z</time>
      </trkpt>
      <trkpt lat="44.4091" lon="1.99614">
        <ele>418</ele>
        <time>2021-09-01T11:21:14Z</time>
      </trkpt>
      <trkpt lat="44.40906" lon="1.99618">
        <ele>419</ele>
        <time>2021-09-01T11:21:17Z</time>
      </trkpt>
      <trkpt lat="44.40902" lon="1.99622">
        <ele>419</ele>
        <time>2021-09-01T11:21:22Z</time>
      </trkpt>
      <trkpt lat="44.40899" lon="1.99627">
        <ele>419</ele>
        <time>2021-09-01T11:21:25Z</time>
      </trkpt>
      <trkpt lat="44.40847" lon="1.9968">
        <ele>427</ele>
        <time>2021-09-01T11:21:57Z</time>
      </trkpt>
      <trkpt lat="44.40814" lon="1.99713">
        <ele>429</ele>
        <time>2021-09-01T11:22:15Z</time>
      </trkpt>
      <trkpt lat="44.40719" lon="1.99761">
        <ele>426</ele>
        <time>2021-09-01T11:22:47Z</time>
      </trkpt>
      <trkpt lat="44.40614" lon="1.99805">
        <ele>432</ele>
        <time>2021-09-01T11:23:19Z</time>
      </trkpt>
      <trkpt lat="44.40505" lon="1.99831">
        <ele>434</ele>
        <time>2021-09-01T11:23:49Z</time>
      </trkpt>
      <trkpt lat="44.40336" lon="1.9986">
        <ele>425</ele>
        <time>2021-09-01T11:24:20Z</time>
      </trkpt>
      <trkpt lat="44.40135" lon="1.99882">
        <ele>425</ele>
        <time>2021-09-01T11:24:51Z</time>
      </trkpt>
      <trkpt lat="44.40079" lon="1.99889">
        <ele>428</ele>
        <time>2021-09-01T11:25:11Z</time>
      </trkpt>
      <trkpt lat="44.40005" lon="1.99888">
        <ele>423</ele>
        <time>2021-09-01T11:25:30Z</time>
      </trkpt>
      <trkpt lat="44.39994" lon="1.99885">
        <ele>422</ele>
        <time>2021-09-01T11:25:32Z</time>
      </trkpt>
      <trkpt lat="44.39928" lon="1.99873">
        <ele>424</ele>
        <time>2021-09-01T11:25:45Z</time>
      </trkpt>
      <trkpt lat="44.3992" lon="1.99872">
        <ele>426</ele>
        <time>2021-09-01T11:25:47Z</time>
      </trkpt>
      <trkpt lat="44.39825" lon="1.99939">
        <ele>427</ele>
        <time>2021-09-01T11:26:11Z</time>
      </trkpt>
      <trkpt lat="44.39724" lon="2.00022">
        <ele>416</ele>
        <time>2021-09-01T11:26:31Z</time>
      </trkpt>
      <trkpt lat="44.39692" lon="2.00038">
        <ele>412</ele>
        <time>2021-09-01T11:26:36Z</time>
      </trkpt>
      <trkpt lat="44.39686" lon="2.00043">
        <ele>410</ele>
        <time>2021-09-01T11:26:37Z</time>
      </trkpt>
      <trkpt lat="44.39675" lon="2.00059">
        <ele>410</ele>
        <time>2021-09-01T11:26:39Z</time>
      </trkpt>
      <trkpt lat="44.39666" lon="2.0009">
        <ele>408</ele>
        <time>2021-09-01T11:26:42Z</time>
      </trkpt>
      <trkpt lat="44.39662" lon="2.0011">
        <ele>406</ele>
        <time>2021-09-01T11:26:44Z</time>
      </trkpt>
      <trkpt lat="44.39662" lon="2.00169">
        <ele>401</ele>
        <time>2021-09-01T11:26:50Z</time>
      </trkpt>
      <trkpt lat="44.39662" lon="2.00178">
        <ele>401</ele>
        <time>2021-09-01T11:26:51Z</time>
      </trkpt>
      <trkpt lat="44.3966" lon="2.00184">
        <ele>400</ele>
        <time>2021-09-01T11:26:52Z</time>
      </trkpt>
      <trkpt lat="44.39657" lon="2.00189">
        <ele>400</ele>
        <time>2021-09-01T11:26:53Z</time>
      </trkpt>
      <trkpt lat="44.39625" lon="2.0019">
        <ele>396</ele>
        <time>2021-09-01T11:26:58Z</time>
      </trkpt>
      <trkpt lat="44.39435" lon="2.00176">
        <ele>385</ele>
        <time>2021-09-01T11:27:26Z</time>
      </trkpt>
      <trkpt lat="44.3943" lon="2.0017">
        <ele>384</ele>
        <time>2021-09-01T11:27:32Z</time>
      </trkpt>
      <trkpt lat="44.39406" lon="2.00083">
        <ele>377</ele>
        <time>2021-09-01T11:27:44Z</time>
      </trkpt>
      <trkpt lat="44.39403" lon="2.00072">
        <ele>377</ele>
        <time>2021-09-01T11:27:45Z</time>
      </trkpt>
      <trkpt lat="44.39398" lon="2.00063">
        <ele>377</ele>
        <time>2021-09-01T11:27:46Z</time>
      </trkpt>
      <trkpt lat="44.39391" lon="2.00056">
        <ele>377</ele>
        <time>2021-09-01T11:27:47Z</time>
      </trkpt>
      <trkpt lat="44.39372" lon="2.00046">
        <ele>376</ele>
        <time>2021-09-01T11:27:50Z</time>
      </trkpt>
      <trkpt lat="44.39213" lon="2.0002">
        <ele>358</ele>
        <time>2021-09-01T11:28:12Z</time>
      </trkpt>
      <trkpt lat="44.39203" lon="2.00015">
        <ele>356</ele>
        <time>2021-09-01T11:28:14Z</time>
      </trkpt>
      <trkpt lat="44.39194" lon="2.00009">
        <ele>354</ele>
        <time>2021-09-01T11:28:16Z</time>
      </trkpt>
      <trkpt lat="44.39182" lon="1.99986">
        <ele>351</ele>
        <time>2021-09-01T11:28:20Z</time>
      </trkpt>
      <trkpt lat="44.39171" lon="1.99972">
        <ele>350</ele>
        <time>2021-09-01T11:28:23Z</time>
      </trkpt>
      <trkpt lat="44.39018" lon="1.99899">
        <ele>335</ele>
        <time>2021-09-01T11:28:42Z</time>
      </trkpt>
      <trkpt lat="44.38993" lon="1.99872">
        <ele>332</ele>
        <time>2021-09-01T11:28:46Z</time>
      </trkpt>
      <trkpt lat="44.38987" lon="1.99869">
        <ele>331</ele>
        <time>2021-09-01T11:28:47Z</time>
      </trkpt>
      <trkpt lat="44.38972" lon="1.99869">
        <ele>328</ele>
        <time>2021-09-01T11:28:49Z</time>
      </trkpt>
      <trkpt lat="44.38886" lon="1.99894">
        <ele>318</ele>
        <time>2021-09-01T11:29:00Z</time>
      </trkpt>
      <trkpt lat="44.38879" lon="1.99894">
        <ele>318</ele>
        <time>2021-09-01T11:29:01Z</time>
      </trkpt>
      <trkpt lat="44.38867" lon="1.99891">
        <ele>317</ele>
        <time>2021-09-01T11:29:03Z</time>
      </trkpt>
      <trkpt lat="44.38856" lon="1.99881">
        <ele>316</ele>
        <time>2021-09-01T11:29:05Z</time>
      </trkpt>
      <trkpt lat="44.38848" lon="1.99866">
        <ele>315</ele>
        <time>2021-09-01T11:29:07Z</time>
      </trkpt>
      <trkpt lat="44.38838" lon="1.99836">
        <ele>313</ele>
        <time>2021-09-01T11:29:10Z</time>
      </trkpt>
      <trkpt lat="44.38827" lon="1.99783">
        <ele>314</ele>
        <time>2021-09-01T11:29:15Z</time>
      </trkpt>
      <trkpt lat="44.38824" lon="1.99775">
        <ele>314</ele>
        <time>2021-09-01T11:29:16Z</time>
      </trkpt>
      <trkpt lat="44.38819" lon="1.99768">
        <ele>314</ele>
        <time>2021-09-01T11:29:17Z</time>
      </trkpt>
      <trkpt lat="44.38814" lon="1.99763">
        <ele>314</ele>
        <time>2021-09-01T11:29:18Z</time>
      </trkpt>
      <trkpt lat="44.38713" lon="1.9974">
        <ele>313</ele>
        <time>2021-09-01T11:29:35Z</time>
      </trkpt>
      <trkpt lat="44.38691" lon="1.99726">
        <ele>312</ele>
        <time>2021-09-01T11:29:40Z</time>
      </trkpt>
      <trkpt lat="44.38631" lon="1.99684">
        <ele>312</ele>
        <time>2021-09-01T11:29:56Z</time>
      </trkpt>
      <trkpt lat="44.38587" lon="1.99668">
        <ele>306</ele>
        <time>2021-09-01T11:30:07Z</time>
      </trkpt>
      <trkpt lat="44.38567" lon="1.99668">
        <ele>303</ele>
        <time>2021-09-01T11:30:11Z</time>
      </trkpt>
      <trkpt lat="44.38553" lon="1.99672">
        <ele>301</ele>
        <time>2021-09-01T11:30:16Z</time>
      </trkpt>
      <trkpt lat="44.38515" lon="1.99685">
        <ele>294</ele>
        <time>2021-09-01T11:30:21Z</time>
      </trkpt>
      <trkpt lat="44.38421" lon="1.99753">
        <ele>291</ele>
        <time>2021-09-01T11:30:38Z</time>
      </trkpt>
      <trkpt lat="44.38248" lon="1.99791">
        <ele>296</ele>
        <time>2021-09-01T11:31:06Z</time>
      </trkpt>
      <trkpt lat="44.38241" lon="1.99792">
        <ele>297</ele>
        <time>2021-09-01T11:31:08Z</time>
      </trkpt>
      <trkpt lat="44.38239" lon="1.99798">
        <ele>299</ele>
        <time>2021-09-01T11:31:45Z</time>
      </trkpt>
      <trkpt lat="44.38231" lon="1.99846">
        <ele>298</ele>
        <time>2021-09-01T11:31:56Z</time>
      </trkpt>
      <trkpt lat="44.38223" lon="1.99863">
        <ele>297</ele>
        <time>2021-09-01T11:32:00Z</time>
      </trkpt>
      <trkpt lat="44.38207" lon="1.99888">
        <ele>296</ele>
        <time>2021-09-01T11:32:06Z</time>
      </trkpt>
      <trkpt lat="44.38197" lon="1.99902">
        <ele>297</ele>
        <time>2021-09-01T11:32:10Z</time>
      </trkpt>
      <trkpt lat="44.38187" lon="1.99919">
        <ele>296</ele>
        <time>2021-09-01T11:32:14Z</time>
      </trkpt>
      <trkpt lat="44.38167" lon="1.99973">
        <ele>293</ele>
        <time>2021-09-01T11:32:26Z</time>
      </trkpt>
      <trkpt lat="44.38165" lon="1.99981">
        <ele>293</ele>
        <time>2021-09-01T11:32:28Z</time>
      </trkpt>
      <trkpt lat="44.38171" lon="1.99992">
        <ele>295</ele>
        <time>2021-09-01T11:32:33Z</time>
      </trkpt>
      <trkpt lat="44.38176" lon="1.99996">
        <ele>296</ele>
        <time>2021-09-01T11:32:40Z</time>
      </trkpt>
      <trkpt lat="44.38188" lon="1.99996">
        <ele>296</ele>
        <time>2021-09-01T11:32:47Z</time>
      </trkpt>
      <trkpt lat="44.38203" lon="2">
        <ele>297</ele>
        <time>2021-09-01T11:32:58Z</time>
      </trkpt>
      <trkpt lat="44.38209" lon="2.00002">
        <ele>299</ele>
        <time>2021-09-01T11:33:03Z</time>
      </trkpt>
      <trkpt lat="44.38211" lon="2.0001">
        <ele>299</ele>
        <time>2021-09-01T11:33:07Z</time>
      </trkpt>
      <trkpt lat="44.38215" lon="2.00016">
        <ele>300</ele>
        <time>2021-09-01T11:33:16Z</time>
      </trkpt>
      <trkpt lat="44.38221" lon="2.00015">
        <ele>302</ele>
        <time>2021-09-01T11:33:33Z</time>
      </trkpt>
      <trkpt lat="44.38226" lon="2.00011">
        <ele>307</ele>
        <time>2021-09-01T11:33:39Z</time>
      </trkpt>
      <trkpt lat="44.38229" lon="2.00003">
        <ele>308</ele>
        <time>2021-09-01T11:33:51Z</time>
      </trkpt>
      <trkpt lat="44.38229" lon="1.99995">
        <ele>309</ele>
        <time>2021-09-01T11:33:54Z</time>
      </trkpt>
      <trkpt lat="44.3824" lon="1.99986">
        <ele>310</ele>
        <time>2021-09-01T11:34:00Z</time>
      </trkpt>
      <trkpt lat="44.38243" lon="1.99978">
        <ele>311</ele>
        <time>2021-09-01T11:34:03Z</time>
      </trkpt>
      <trkpt lat="44.38241" lon="1.9997">
        <ele>310</ele>
        <time>2021-09-01T11:34:06Z</time>
      </trkpt>
      <trkpt lat="44.38229" lon="1.99956">
        <ele>311</ele>
        <time>2021-09-01T11:34:12Z</time>
      </trkpt>
      <trkpt lat="44.38203" lon="2.00004">
        <ele>306</ele>
        <time>2021-09-01T11:34:30Z</time>
      </trkpt>
      <trkpt lat="44.38171" lon="1.99991">
        <ele>302</ele>
        <time>2021-09-01T11:34:40Z</time>
      </trkpt>
      <trkpt lat="44.38167" lon="1.99989">
        <ele>303</ele>
        <time>2021-09-01T11:34:50Z</time>
      </trkpt>
      <trkpt lat="44.38159" lon="2">
        <ele>303</ele>
        <time>2021-09-01T11:34:56Z</time>
      </trkpt>
      <trkpt lat="44.38155" lon="2.00001">
        <ele>303</ele>
        <time>2021-09-01T11:35:10Z</time>
      </trkpt>
      <trkpt lat="44.3815" lon="1.99997">
        <ele>303</ele>
        <time>2021-09-01T11:35:13Z</time>
      </trkpt>
      <trkpt lat="44.38144" lon="1.99994">
        <ele>303</ele>
        <time>2021-09-01T11:35:15Z</time>
      </trkpt>
      <trkpt lat="44.38139" lon="1.99995">
        <ele>303</ele>
        <time>2021-09-01T11:35:16Z</time>
      </trkpt>
      <trkpt lat="44.38135" lon="1.99999">
        <ele>303</ele>
        <time>2021-09-01T11:35:17Z</time>
      </trkpt>
      <trkpt lat="44.38131" lon="2.00004">
        <ele>303</ele>
        <time>2021-09-01T11:35:18Z</time>
      </trkpt>
      <trkpt lat="44.381" lon="2.00044">
        <ele>300</ele>
        <time>2021-09-01T11:35:30Z</time>
      </trkpt>
      <trkpt lat="44.38095" lon="2.00048">
        <ele>300</ele>
        <time>2021-09-01T11:35:32Z</time>
      </trkpt>
      <trkpt lat="44.3809" lon="2.00046">
        <ele>299</ele>
        <time>2021-09-01T11:35:34Z</time>
      </trkpt>
      <trkpt lat="44.38086" lon="2.0004">
        <ele>299</ele>
        <time>2021-09-01T11:35:36Z</time>
      </trkpt>
      <trkpt lat="44.38085" lon="2.00032">
        <ele>300</ele>
        <time>2021-09-01T11:35:38Z</time>
      </trkpt>
      <trkpt lat="44.38082" lon="2.00025">
        <ele>300</ele>
        <time>2021-09-01T11:35:40Z</time>
      </trkpt>
      <trkpt lat="44.38079" lon="2.00019">
        <ele>300</ele>
        <time>2021-09-01T11:35:42Z</time>
      </trkpt>
      <trkpt lat="44.38077" lon="2.00012">
        <ele>301</ele>
        <time>2021-09-01T11:35:45Z</time>
      </trkpt>
      <trkpt lat="44.3808" lon="2.00008">
        <ele>301</ele>
        <time>2021-09-01T11:35:58Z</time>
      </trkpt>
      <trkpt lat="44.38076" lon="2.0001">
        <ele>301</ele>
        <time>2021-09-01T11:36:54Z</time>
      </trkpt>
      <trkpt lat="44.38071" lon="2.00012">
        <ele>299</ele>
        <time>2021-09-01T11:36:58Z</time>
      </trkpt>
      <trkpt lat="44.38066" lon="2.0001">
        <ele>300</ele>
        <time>2021-09-01T11:37:02Z</time>
      </trkpt>
      <trkpt lat="44.38062" lon="2.00005">
        <ele>300</ele>
        <time>2021-09-01T11:37:06Z</time>
      </trkpt>
      <trkpt lat="44.38059" lon="1.99999">
        <ele>302</ele>
        <time>2021-09-01T11:38:10Z</time>
      </trkpt>
      <trkpt lat="44.38063" lon="1.99998">
        <ele>303</ele>
        <time>2021-09-01T12:01:34Z</time>
      </trkpt>
      <trkpt lat="44.38064" lon="2.00005">
        <ele>303</ele>
        <time>2021-09-01T12:03:23Z</time>
      </trkpt>
      <trkpt lat="44.38069" lon="2.0001">
        <ele>303</ele>
        <time>2021-09-01T12:03:26Z</time>
      </trkpt>
      <trkpt lat="44.38086" lon="2.00041">
        <ele>306</ele>
        <time>2021-09-01T12:03:38Z</time>
      </trkpt>
      <trkpt lat="44.38089" lon="2.00048">
        <ele>307</ele>
        <time>2021-09-01T12:03:40Z</time>
      </trkpt>
      <trkpt lat="44.38094" lon="2.00051">
        <ele>307</ele>
        <time>2021-09-01T12:03:43Z</time>
      </trkpt>
      <trkpt lat="44.381" lon="2.00051">
        <ele>307</ele>
        <time>2021-09-01T12:03:46Z</time>
      </trkpt>
      <trkpt lat="44.38107" lon="2.00039">
        <ele>306</ele>
        <time>2021-09-01T12:03:51Z</time>
      </trkpt>
      <trkpt lat="44.38117" lon="2.00027">
        <ele>305</ele>
        <time>2021-09-01T12:03:57Z</time>
      </trkpt>
      <trkpt lat="44.38122" lon="2.00025">
        <ele>305</ele>
        <time>2021-09-01T12:04:00Z</time>
      </trkpt>
      <trkpt lat="44.38125" lon="2.00032">
        <ele>306</ele>
        <time>2021-09-01T12:04:04Z</time>
      </trkpt>
      <trkpt lat="44.38123" lon="2.00039">
        <ele>306</ele>
        <time>2021-09-01T12:04:07Z</time>
      </trkpt>
      <trkpt lat="44.38119" lon="2.00043">
        <ele>307</ele>
        <time>2021-09-01T12:05:48Z</time>
      </trkpt>
      <trkpt lat="44.38115" lon="2.00039">
        <ele>306</ele>
        <time>2021-09-01T12:06:26Z</time>
      </trkpt>
      <trkpt lat="44.3811" lon="2.00041">
        <ele>300</ele>
        <time>2021-09-01T12:07:14Z</time>
      </trkpt>
      <trkpt lat="44.3811" lon="2.00044">
        <ele>306</ele>
        <time>2021-09-01T12:31:14Z</time>
      </trkpt>
      <trkpt lat="44.38115" lon="2.00041">
        <ele>303</ele>
        <time>2021-09-01T12:34:15Z</time>
      </trkpt>
      <trkpt lat="44.38118" lon="2.00036">
        <ele>303</ele>
        <time>2021-09-01T12:34:32Z</time>
      </trkpt>
      <trkpt lat="44.38119" lon="2.00045">
        <ele>279</ele>
        <time>2021-09-01T12:40:46Z</time>
      </trkpt>
      <trkpt lat="44.38114" lon="2.00045">
        <ele>323</ele>
        <time>2021-09-01T12:41:02Z</time>
      </trkpt>
      <trkpt lat="44.38113" lon="2.00049">
        <ele>314</ele>
        <time>2021-09-01T12:41:11Z</time>
      </trkpt>
      <trkpt lat="44.38125" lon="2.00049">
        <ele>307</ele>
        <time>2021-09-01T12:41:12Z</time>
      </trkpt>
      <trkpt lat="44.38125" lon="2.00047">
        <ele>301</ele>
        <time>2021-09-01T12:41:16Z</time>
      </trkpt>
      <trkpt lat="44.38121" lon="2.00045">
        <ele>306</ele>
        <time>2021-09-01T12:41:18Z</time>
      </trkpt>
      <trkpt lat="44.38112" lon="2.00045">
        <ele>309</ele>
        <time>2021-09-01T12:41:19Z</time>
      </trkpt>
      <trkpt lat="44.38118" lon="2.00036">
        <ele>295</ele>
        <time>2021-09-01T12:41:26Z</time>
      </trkpt>
      <trkpt lat="44.38116" lon="2.00042">
        <ele>320</ele>
        <time>2021-09-01T12:41:29Z</time>
      </trkpt>
      <trkpt lat="44.38121" lon="2.00054">
        <ele>302</ele>
        <time>2021-09-01T12:41:36Z</time>
      </trkpt>
      <trkpt lat="44.3812" lon="2.00055">
        <ele>299</ele>
        <time>2021-09-01T12:41:54Z</time>
      </trkpt>
      <trkpt lat="44.38116" lon="2.00052">
        <ele>303</ele>
        <time>2021-09-01T12:41:57Z</time>
      </trkpt>
      <trkpt lat="44.38113" lon="2.00044">
        <ele>324</ele>
        <time>2021-09-01T12:42:03Z</time>
      </trkpt>
      <trkpt lat="44.38116" lon="2.00044">
        <ele>301</ele>
        <time>2021-09-01T12:42:06Z</time>
      </trkpt>
      <trkpt lat="44.38094" lon="2.00022">
        <ele>373</ele>
        <time>2021-09-01T12:42:16Z</time>
      </trkpt>
      <trkpt lat="44.38112" lon="2.00036">
        <ele>332</ele>
        <time>2021-09-01T12:42:22Z</time>
      </trkpt>
      <trkpt lat="44.38117" lon="2.00034">
        <ele>316</ele>
        <time>2021-09-01T12:43:50Z</time>
      </trkpt>
      <trkpt lat="44.38121" lon="2.00027">
        <ele>314</ele>
        <time>2021-09-01T12:44:01Z</time>
      </trkpt>
      <trkpt lat="44.38122" lon="2.0002">
        <ele>312</ele>
        <time>2021-09-01T12:44:04Z</time>
      </trkpt>
      <trkpt lat="44.38123" lon="2.00012">
        <ele>312</ele>
        <time>2021-09-01T12:44:06Z</time>
      </trkpt>
      <trkpt lat="44.38126" lon="2.00005">
        <ele>312</ele>
        <time>2021-09-01T12:44:08Z</time>
      </trkpt>
      <trkpt lat="44.3813" lon="2">
        <ele>312</ele>
        <time>2021-09-01T12:44:10Z</time>
      </trkpt>
      <trkpt lat="44.3814" lon="1.99991">
        <ele>311</ele>
        <time>2021-09-01T12:44:16Z</time>
      </trkpt>
      <trkpt lat="44.38146" lon="1.99991">
        <ele>310</ele>
        <time>2021-09-01T12:44:19Z</time>
      </trkpt>
      <trkpt lat="44.3815" lon="1.99998">
        <ele>310</ele>
        <time>2021-09-01T12:44:22Z</time>
      </trkpt>
      <trkpt lat="44.38118" lon="2.00106">
        <ele>307</ele>
        <time>2021-09-01T12:44:52Z</time>
      </trkpt>
      <trkpt lat="44.38106" lon="2.00141">
        <ele>307</ele>
        <time>2021-09-01T12:45:00Z</time>
      </trkpt>
      <trkpt lat="44.38042" lon="2.00301">
        <ele>303</ele>
        <time>2021-09-01T12:45:30Z</time>
      </trkpt>
      <trkpt lat="44.37975" lon="2.00431">
        <ele>298</ele>
        <time>2021-09-01T12:45:49Z</time>
      </trkpt>
      <trkpt lat="44.37838" lon="2.00629">
        <ele>285</ele>
        <time>2021-09-01T12:46:19Z</time>
      </trkpt>
      <trkpt lat="44.37762" lon="2.00747">
        <ele>284</ele>
        <time>2021-09-01T12:46:34Z</time>
      </trkpt>
      <trkpt lat="44.3768" lon="2.0096">
        <ele>285</ele>
        <time>2021-09-01T12:46:59Z</time>
      </trkpt>
      <trkpt lat="44.37672" lon="2.0097">
        <ele>286</ele>
        <time>2021-09-01T12:47:01Z</time>
      </trkpt>
      <trkpt lat="44.37658" lon="2.0098">
        <ele>288</ele>
        <time>2021-09-01T12:47:04Z</time>
      </trkpt>
      <trkpt lat="44.37654" lon="2.00984">
        <ele>288</ele>
        <time>2021-09-01T12:47:05Z</time>
      </trkpt>
      <trkpt lat="44.37651" lon="2.00991">
        <ele>288</ele>
        <time>2021-09-01T12:47:06Z</time>
      </trkpt>
      <trkpt lat="44.37649" lon="2.00999">
        <ele>288</ele>
        <time>2021-09-01T12:47:07Z</time>
      </trkpt>
      <trkpt lat="44.37649" lon="2.01025">
        <ele>290</ele>
        <time>2021-09-01T12:47:10Z</time>
      </trkpt>
      <trkpt lat="44.37649" lon="2.01038">
        <ele>290</ele>
        <time>2021-09-01T12:47:12Z</time>
      </trkpt>
      <trkpt lat="44.37575" lon="2.01213">
        <ele>287</ele>
        <time>2021-09-01T12:47:39Z</time>
      </trkpt>
      <trkpt lat="44.375" lon="2.01307">
        <ele>282</ele>
        <time>2021-09-01T12:47:57Z</time>
      </trkpt>
      <trkpt lat="44.37476" lon="2.01329">
        <ele>282</ele>
        <time>2021-09-01T12:48:03Z</time>
      </trkpt>
      <trkpt lat="44.37461" lon="2.01335">
        <ele>282</ele>
        <time>2021-09-01T12:48:06Z</time>
      </trkpt>
      <trkpt lat="44.37446" lon="2.01346">
        <ele>282</ele>
        <time>2021-09-01T12:48:10Z</time>
      </trkpt>
      <trkpt lat="44.37434" lon="2.01361">
        <ele>280</ele>
        <time>2021-09-01T12:48:13Z</time>
      </trkpt>
      <trkpt lat="44.37274" lon="2.01449">
        <ele>276</ele>
        <time>2021-09-01T12:48:44Z</time>
      </trkpt>
      <trkpt lat="44.37101" lon="2.01593">
        <ele>273</ele>
        <time>2021-09-01T12:49:14Z</time>
      </trkpt>
      <trkpt lat="44.37064" lon="2.01609">
        <ele>274</ele>
        <time>2021-09-01T12:49:20Z</time>
      </trkpt>
      <trkpt lat="44.37027" lon="2.01615">
        <ele>274</ele>
        <time>2021-09-01T12:49:26Z</time>
      </trkpt>
      <trkpt lat="44.36912" lon="2.01585">
        <ele>273</ele>
        <time>2021-09-01T12:49:47Z</time>
      </trkpt>
      <trkpt lat="44.36807" lon="2.01555">
        <ele>270</ele>
        <time>2021-09-01T12:50:08Z</time>
      </trkpt>
      <trkpt lat="44.3676" lon="2.01554">
        <ele>269</ele>
        <time>2021-09-01T12:50:17Z</time>
      </trkpt>
      <trkpt lat="44.36702" lon="2.01574">
        <ele>270</ele>
        <time>2021-09-01T12:50:29Z</time>
      </trkpt>
      <trkpt lat="44.36569" lon="2.01674">
        <ele>271</ele>
        <time>2021-09-01T12:50:59Z</time>
      </trkpt>
      <trkpt lat="44.36445" lon="2.01794">
        <ele>273</ele>
        <time>2021-09-01T12:51:30Z</time>
      </trkpt>
      <trkpt lat="44.36328" lon="2.01927">
        <ele>272</ele>
        <time>2021-09-01T12:52:01Z</time>
      </trkpt>
      <trkpt lat="44.36234" lon="2.02088">
        <ele>274</ele>
        <time>2021-09-01T12:52:31Z</time>
      </trkpt>
      <trkpt lat="44.36137" lon="2.02264">
        <ele>279</ele>
        <time>2021-09-01T12:53:02Z</time>
      </trkpt>
      <trkpt lat="44.36055" lon="2.0241">
        <ele>282</ele>
        <time>2021-09-01T12:53:28Z</time>
      </trkpt>
      <trkpt lat="44.36044" lon="2.02436">
        <ele>282</ele>
        <time>2021-09-01T12:53:32Z</time>
      </trkpt>
      <trkpt lat="44.35945" lon="2.02612">
        <ele>278</ele>
        <time>2021-09-01T12:54:02Z</time>
      </trkpt>
      <trkpt lat="44.35883" lon="2.02713">
        <ele>276</ele>
        <time>2021-09-01T12:54:22Z</time>
      </trkpt>
      <trkpt lat="44.35865" lon="2.0273">
        <ele>277</ele>
        <time>2021-09-01T12:54:28Z</time>
      </trkpt>
      <trkpt lat="44.35861" lon="2.02733">
        <ele>278</ele>
        <time>2021-09-01T12:55:05Z</time>
      </trkpt>
      <trkpt lat="44.35857" lon="2.02738">
        <ele>278</ele>
        <time>2021-09-01T12:55:07Z</time>
      </trkpt>
      <trkpt lat="44.35854" lon="2.02746">
        <ele>278</ele>
        <time>2021-09-01T12:55:09Z</time>
      </trkpt>
      <trkpt lat="44.35846" lon="2.02762">
        <ele>278</ele>
        <time>2021-09-01T12:55:13Z</time>
      </trkpt>
      <trkpt lat="44.35736" lon="2.0285">
        <ele>274</ele>
        <time>2021-09-01T12:55:44Z</time>
      </trkpt>
      <trkpt lat="44.35613" lon="2.02944">
        <ele>275</ele>
        <time>2021-09-01T12:56:16Z</time>
      </trkpt>
      <trkpt lat="44.35592" lon="2.02956">
        <ele>274</ele>
        <time>2021-09-01T12:56:22Z</time>
      </trkpt>
      <trkpt lat="44.35586" lon="2.02958">
        <ele>274</ele>
        <time>2021-09-01T12:56:24Z</time>
      </trkpt>
      <trkpt lat="44.35574" lon="2.02951">
        <ele>274</ele>
        <time>2021-09-01T12:56:28Z</time>
      </trkpt>
      <trkpt lat="44.35567" lon="2.02951">
        <ele>273</ele>
        <time>2021-09-01T12:56:30Z</time>
      </trkpt>
      <trkpt lat="44.35562" lon="2.02954">
        <ele>274</ele>
        <time>2021-09-01T12:56:31Z</time>
      </trkpt>
      <trkpt lat="44.35554" lon="2.02959">
        <ele>274</ele>
        <time>2021-09-01T12:56:33Z</time>
      </trkpt>
      <trkpt lat="44.35445" lon="2.03021">
        <ele>272</ele>
        <time>2021-09-01T12:56:55Z</time>
      </trkpt>
      <trkpt lat="44.35435" lon="2.03022">
        <ele>271</ele>
        <time>2021-09-01T12:56:57Z</time>
      </trkpt>
      <trkpt lat="44.35421" lon="2.03015">
        <ele>271</ele>
        <time>2021-09-01T12:57:00Z</time>
      </trkpt>
      <trkpt lat="44.35408" lon="2.02999">
        <ele>272</ele>
        <time>2021-09-01T12:57:04Z</time>
      </trkpt>
      <trkpt lat="44.35382" lon="2.02972">
        <ele>275</ele>
        <time>2021-09-01T12:57:14Z</time>
      </trkpt>
      <trkpt lat="44.35378" lon="2.02967">
        <ele>275</ele>
        <time>2021-09-01T12:57:17Z</time>
      </trkpt>
      <trkpt lat="44.35373" lon="2.02963">
        <ele>275</ele>
        <time>2021-09-01T12:57:22Z</time>
      </trkpt>
      <trkpt lat="44.35368" lon="2.02969">
        <ele>275</ele>
        <time>2021-09-01T12:57:24Z</time>
      </trkpt>
      <trkpt lat="44.35343" lon="2.03019">
        <ele>273</ele>
        <time>2021-09-01T12:57:35Z</time>
      </trkpt>
      <trkpt lat="44.35291" lon="2.03143">
        <ele>269</ele>
        <time>2021-09-01T12:57:55Z</time>
      </trkpt>
      <trkpt lat="44.35278" lon="2.03172">
        <ele>270</ele>
        <time>2021-09-01T12:58:01Z</time>
      </trkpt>
      <trkpt lat="44.35275" lon="2.0318">
        <ele>270</ele>
        <time>2021-09-01T12:58:03Z</time>
      </trkpt>
      <trkpt lat="44.35289" lon="2.03207">
        <ele>271</ele>
        <time>2021-09-01T12:58:09Z</time>
      </trkpt>
      <trkpt lat="44.35293" lon="2.03216">
        <ele>271</ele>
        <time>2021-09-01T12:58:11Z</time>
      </trkpt>
      <trkpt lat="44.35297" lon="2.03225">
        <ele>272</ele>
        <time>2021-09-01T12:58:13Z</time>
      </trkpt>
      <trkpt lat="44.35301" lon="2.03252">
        <ele>272</ele>
        <time>2021-09-01T12:58:19Z</time>
      </trkpt>
      <trkpt lat="44.35302" lon="2.03262">
        <ele>273</ele>
        <time>2021-09-01T12:58:21Z</time>
      </trkpt>
      <trkpt lat="44.35302" lon="2.03271">
        <ele>273</ele>
        <time>2021-09-01T12:58:23Z</time>
      </trkpt>
      <trkpt lat="44.35301" lon="2.0328">
        <ele>273</ele>
        <time>2021-09-01T12:58:25Z</time>
      </trkpt>
      <trkpt lat="44.35297" lon="2.0334">
        <ele>271</ele>
        <time>2021-09-01T12:58:39Z</time>
      </trkpt>
      <trkpt lat="44.35285" lon="2.0337">
        <ele>271</ele>
        <time>2021-09-01T12:58:45Z</time>
      </trkpt>
      <trkpt lat="44.35283" lon="2.03379">
        <ele>271</ele>
        <time>2021-09-01T12:58:47Z</time>
      </trkpt>
      <trkpt lat="44.35283" lon="2.03388">
        <ele>272</ele>
        <time>2021-09-01T12:58:49Z</time>
      </trkpt>
      <trkpt lat="44.35283" lon="2.03396">
        <ele>272</ele>
        <time>2021-09-01T12:58:53Z</time>
      </trkpt>
      <trkpt lat="44.35279" lon="2.03401">
        <ele>268</ele>
        <time>2021-09-01T12:59:43Z</time>
      </trkpt>
      <trkpt lat="44.35165" lon="2.03441">
        <ele>252</ele>
        <time>2021-09-01T13:00:09Z</time>
      </trkpt>
      <trkpt lat="44.35031" lon="2.03554">
        <ele>250</ele>
        <time>2021-09-01T13:00:40Z</time>
      </trkpt>
      <trkpt lat="44.34965" lon="2.03615">
        <ele>249</ele>
        <time>2021-09-01T13:01:01Z</time>
      </trkpt>
      <trkpt lat="44.3496" lon="2.03622">
        <ele>248</ele>
        <time>2021-09-01T13:01:03Z</time>
      </trkpt>
      <trkpt lat="44.34955" lon="2.03643">
        <ele>245</ele>
        <time>2021-09-01T13:01:07Z</time>
      </trkpt>
      <trkpt lat="44.34954" lon="2.03655">
        <ele>244</ele>
        <time>2021-09-01T13:01:09Z</time>
      </trkpt>
      <trkpt lat="44.34981" lon="2.03838">
        <ele>246</ele>
        <time>2021-09-01T13:01:39Z</time>
      </trkpt>
      <trkpt lat="44.35018" lon="2.04026">
        <ele>247</ele>
        <time>2021-09-01T13:02:10Z</time>
      </trkpt>
      <trkpt lat="44.35039" lon="2.04165">
        <ele>248</ele>
        <time>2021-09-01T13:02:34Z</time>
      </trkpt>
      <trkpt lat="44.3504" lon="2.04181">
        <ele>248</ele>
        <time>2021-09-01T13:02:39Z</time>
      </trkpt>
      <trkpt lat="44.35042" lon="2.04187">
        <ele>248</ele>
        <time>2021-09-01T13:03:22Z</time>
      </trkpt>
      <trkpt lat="44.3504" lon="2.04196">
        <ele>248</ele>
        <time>2021-09-01T13:03:25Z</time>
      </trkpt>
      <trkpt lat="44.35042" lon="2.04206">
        <ele>247</ele>
        <time>2021-09-01T13:03:27Z</time>
      </trkpt>
      <trkpt lat="44.35052" lon="2.04239">
        <ele>243</ele>
        <time>2021-09-01T13:03:33Z</time>
      </trkpt>
      <trkpt lat="44.35055" lon="2.04274">
        <ele>239</ele>
        <time>2021-09-01T13:03:39Z</time>
      </trkpt>
      <trkpt lat="44.35057" lon="2.04282">
        <ele>238</ele>
        <time>2021-09-01T13:03:41Z</time>
      </trkpt>
      <trkpt lat="44.35069" lon="2.04331">
        <ele>232</ele>
        <time>2021-09-01T13:03:49Z</time>
      </trkpt>
      <trkpt lat="44.35081" lon="2.04389">
        <ele>243</ele>
        <time>2021-09-01T13:03:59Z</time>
      </trkpt>
      <trkpt lat="44.35083" lon="2.044">
        <ele>244</ele>
        <time>2021-09-01T13:04:01Z</time>
      </trkpt>
      <trkpt lat="44.35082" lon="2.04407">
        <ele>244</ele>
        <time>2021-09-01T13:04:03Z</time>
      </trkpt>
      <trkpt lat="44.35065" lon="2.04412">
        <ele>247</ele>
        <time>2021-09-01T13:04:07Z</time>
      </trkpt>
      <trkpt lat="44.35057" lon="2.04416">
        <ele>248</ele>
        <time>2021-09-01T13:04:09Z</time>
      </trkpt>
      <trkpt lat="44.35039" lon="2.0444">
        <ele>250</ele>
        <time>2021-09-01T13:04:15Z</time>
      </trkpt>
      <trkpt lat="44.35036" lon="2.04447">
        <ele>249</ele>
        <time>2021-09-01T13:04:17Z</time>
      </trkpt>
      <trkpt lat="44.35034" lon="2.04454">
        <ele>249</ele>
        <time>2021-09-01T13:04:19Z</time>
      </trkpt>
      <trkpt lat="44.35029" lon="2.04455">
        <ele>250</ele>
        <time>2021-09-01T13:04:29Z</time>
      </trkpt>
      <trkpt lat="44.35028" lon="2.04461">
        <ele>250</ele>
        <time>2021-09-01T13:04:34Z</time>
      </trkpt>
      <trkpt lat="44.35019" lon="2.0445">
        <ele>252</ele>
        <time>2021-09-01T13:04:43Z</time>
      </trkpt>
      <trkpt lat="44.34996" lon="2.04458">
        <ele>255</ele>
        <time>2021-09-01T13:04:51Z</time>
      </trkpt>
      <trkpt lat="44.34989" lon="2.0446">
        <ele>255</ele>
        <time>2021-09-01T13:04:53Z</time>
      </trkpt>
      <trkpt lat="44.34977" lon="2.04471">
        <ele>255</ele>
        <time>2021-09-01T13:04:57Z</time>
      </trkpt>
      <trkpt lat="44.34906" lon="2.04598">
        <ele>253</ele>
        <time>2021-09-01T13:05:23Z</time>
      </trkpt>
      <trkpt lat="44.34895" lon="2.0461">
        <ele>253</ele>
        <time>2021-09-01T13:05:26Z</time>
      </trkpt>
      <trkpt lat="44.34883" lon="2.04621">
        <ele>255</ele>
        <time>2021-09-01T13:05:29Z</time>
      </trkpt>
      <trkpt lat="44.34878" lon="2.04627">
        <ele>255</ele>
        <time>2021-09-01T13:05:31Z</time>
      </trkpt>
      <trkpt lat="44.34869" lon="2.04638">
        <ele>256</ele>
        <time>2021-09-01T13:05:35Z</time>
      </trkpt>
      <trkpt lat="44.34863" lon="2.04641">
        <ele>256</ele>
        <time>2021-09-01T13:05:37Z</time>
      </trkpt>
      <trkpt lat="44.34841" lon="2.04648">
        <ele>253</ele>
        <time>2021-09-01T13:05:43Z</time>
      </trkpt>
      <trkpt lat="44.34784" lon="2.04655">
        <ele>250</ele>
        <time>2021-09-01T13:05:59Z</time>
      </trkpt>
      <trkpt lat="44.34765" lon="2.04664">
        <ele>246</ele>
        <time>2021-09-01T13:06:05Z</time>
      </trkpt>
      <trkpt lat="44.34753" lon="2.04669">
        <ele>242</ele>
        <time>2021-09-01T13:06:09Z</time>
      </trkpt>
      <trkpt lat="44.34748" lon="2.04672">
        <ele>240</ele>
        <time>2021-09-01T13:06:11Z</time>
      </trkpt>
      <trkpt lat="44.34729" lon="2.04678">
        <ele>234</ele>
        <time>2021-09-01T13:06:17Z</time>
      </trkpt>
      <trkpt lat="44.34724" lon="2.04679">
        <ele>233</ele>
        <time>2021-09-01T13:06:19Z</time>
      </trkpt>
      <trkpt lat="44.34694" lon="2.04677">
        <ele>225</ele>
        <time>2021-09-01T13:06:29Z</time>
      </trkpt>
      <trkpt lat="44.34689" lon="2.04675">
        <ele>226</ele>
        <time>2021-09-01T13:06:31Z</time>
      </trkpt>
      <trkpt lat="44.34684" lon="2.04673">
        <ele>227</ele>
        <time>2021-09-01T13:06:34Z</time>
      </trkpt>
      <trkpt lat="44.34678" lon="2.04673">
        <ele>231</ele>
        <time>2021-09-01T13:06:57Z</time>
      </trkpt>
    </trkseg>
  </trk>
</gpx>